Data for 10/02/2012

Time Sea-Level Adjusted Pressure Absolute Pressure Temperature Relative Humidity Dew Point Precipitation   
(mb) (inHg) (mb) (inHg) (C) (F) (%) (C) (F) (mm) (in)
00:01 1019 30.09 848 25.04 13 55.3 41 -0 32 0 0
00:02 1019 30.09 848 25.04 12.9 55.3 41 0 32.1 0 0
00:03 1019 30.09 848 25.04 13 55.3 42 0.3 32.5 0 0
00:04 1019 30.09 848 25.04 12.8 55.1 42 0.3 32.5 0 0
00:05 1019 30.09 848 25.04 12.8 55 42 0.3 32.6 0 0
00:06 1019 30.09 848 25.04 12.6 54.7 43 0.4 32.6 0 0
00:07 1019 30.09 848 25.04 12.5 54.5 43 0.5 32.8 0 0
00:08 1019 30.09 848 25.04 12.4 54.3 44 0.5 32.9 0 0
00:09 1019 30.09 848 25.04 12.2 54 44 0.4 32.8 0 0
00:10 1019 30.09 848 25.04 12.1 53.7 44 0.3 32.6 0 0
00:11 1019 30.09 848 25.04 11.9 53.4 44 0.2 32.3 0 0
00:12 1019 30.09 848 25.04 11.7 53.1 44 0.1 32.1 0 0
00:13 1019 30.09 848 25.04 11.7 53.1 43 -0.5 31.2 0 0
00:14 1019 30.09 848 25.04 11.9 53.4 41 -0.8 30.5 0 0
00:15 1018 30.06 848 25.04 12.2 53.9 39 -1.2 29.9 0 0
00:16 1018 30.06 848 25.04 12.5 54.5 39 -1.2 29.9 0 0
00:17 1018 30.06 848 25.04 12.7 54.9 38 -1.2 29.9 0 0
00:18 1018 30.06 848 25.04 12.9 55.2 37 -1.3 29.6 0 0
00:19 1018 30.06 848 25.04 13 55.5 37 -1.2 29.9 0 0
00:20 1018 30.06 848 25.04 13.1 55.6 37 -1 30.2 0 0
00:21 1018 30.06 848 25.04 13.1 55.5 38 -0.8 30.6 0 0
00:22 1018 30.06 848 25.04 13 55.3 38 -0.8 30.5 0 0
00:23 1018 30.06 848 25.04 12.9 55.2 38 -0.9 30.4 0 0
00:24 1018 30.06 848 25.04 12.9 55.2 39 -0.8 30.5 0 0
00:25 1018 30.06 848 25.04 12.9 55.3 39 -0.7 30.7 0 0
00:26 1018 30.06 848 25.04 13 55.5 38 -1 30.2 0 0
00:27 1018 30.06 848 25.04 13.2 55.8 37 -1.2 29.8 0 0
00:28 1018 30.06 848 25.04 13.5 56.3 37 -0.9 30.3 0 0
00:29 1018 30.06 848 25.04 13.7 56.6 35 -1.3 29.7 0 0
00:30 1018 30.06 848 25.04 13.9 56.9 35 -1.1 30 0 0
00:31 1018 30.06 848 25.04 14 57.2 35 -1.2 29.9 0 0
00:32 1018 30.06 848 25.04 14.1 57.4 35 -1.2 29.8 0 0
00:33 1018 30.06 848 25.04 14.2 57.5 35 -1.2 29.9 0 0
00:34 1018 30.06 848 25.04 14.2 57.5 35 -1.1 30 0 0
00:35 1018 30.06 848 25.04 14.2 57.5 34 -1.3 29.6 0 0
00:36 1018 30.06 848 25.04 14.3 57.7 34 -1.4 29.4 0 0
00:37 1018 30.06 848 25.04 14.3 57.7 34 -1.2 29.8 0 0
00:38 1018 30.06 848 25.04 14.3 57.7 34 -1.3 29.7 0 0
00:39 1018 30.06 848 25.04 14.3 57.7 34 -1.2 29.9 0 0
00:40 1018 30.06 848 25.04 14.2 57.5 35 -1.1 30 0 0
00:41 1018 30.06 848 25.04 14.1 57.3 35 -1.2 29.9 0 0
00:42 1018 30.06 848 25.04 14 57.1 35 -1.1 30.1 0 0
00:43 1018 30.06 848 25.04 13.8 56.8 35 -1.1 29.9 0 0
00:44 1018 30.06 848 25.04 13.7 56.6 36 -1.1 29.9 0 0
00:45 1018 30.06 848 25.04 13.6 56.5 36 -1.2 29.8 0 0
00:46 1018 30.06 848 25.04 13.5 56.4 36 -1.3 29.6 0 0
00:47 1018 30.06 848 25.04 13.5 56.3 36 -1.4 29.5 0 0
00:48 1018 30.06 848 25.04 13.5 56.3 35 -1.6 29.2 0 0
00:49 1018 30.06 848 25.04 13.5 56.4 35 -1.4 29.4 0 0
00:50 1018 30.06 848 25.04 13.4 56.1 36 -1.4 29.5 0 0
00:51 1018 30.06 848 25.04 13.4 56 36 -1.4 29.5 0 0
00:52 1018 30.06 848 25.04 13.3 55.9 36 -1.4 29.4 0 0
00:53 1018 30.06 848 25.04 13.2 55.8 37 -1.2 29.8 0 0
00:54 1018 30.06 848 25.04 13.1 55.7 37 -1.3 29.7 0 0
00:55 1018 30.06 848 25.04 13 55.4 37 -1.2 29.8 0 0
00:56 1018 30.06 848 25.04 12.9 55.3 37 -1.2 29.9 0 0
00:57 1018 30.06 848 25.04 12.8 55 38 -1.2 29.9 0 0
00:58 1018 30.06 848 25.04 12.7 54.8 38 -1.2 29.8 0 0
00:59 1018 30.06 848 25.04 12.6 54.6 40 -0.8 30.6 0 0
01:00 1018 30.06 848 25.04 12.2 53.9 41 -0.7 30.7 0 0
01:01 1018 30.06 848 25.04 11.8 53.2 41 -0.9 30.5 0 0
01:02 1018 30.06 848 25.04 11.7 53 41 -1 30.2 0 0
01:03 1018 30.06 848 25.04 11.6 52.9 41 -1.2 29.8 0 0
01:04 1018 30.06 848 25.04 11.7 53 41 -1.2 29.8 0 0
01:05 1018 30.06 848 25.04 11.8 53.2 40 -1.3 29.6 0 0
01:06 1018 30.06 848 25.04 11.9 53.4 40 -1.4 29.6 0 0
01:07 1018 30.06 848 25.04 12 53.7 39 -1.4 29.5 0 0
01:08 1018 30.06 848 25.04 12.2 53.9 39 -1.3 29.6 0 0
01:09 1018 30.06 848 25.04 12.2 54 39 -1.3 29.6 0 0
01:10 1018 30.06 848 25.04 12.3 54.2 38 -1.3 29.6 0 0
01:11 1018 30.06 848 25.04 12.4 54.2 38 -1.4 29.5 0 0
01:12 1018 30.06 848 25.04 12.4 54.3 39 -1.3 29.7 0 0
01:13 1018 30.06 848 25.04 12.4 54.3 38 -1.3 29.6 0 0
01:14 1018 30.06 848 25.04 12.4 54.2 39 -1.3 29.6 0 0
01:15 1018 30.06 848 25.04 12.4 54.3 38 -1.3 29.6 0 0
01:16 1018 30.06 848 25.04 12.4 54.3 38 -1.5 29.3 0 0
01:17 1018 30.06 848 25.04 12.4 54.3 37 -1.8 28.8 0 0
01:18 1018 30.06 848 25.04 12.4 54.4 37 -1.9 28.6 0 0
01:19 1018 30.06 848 25.04 12.5 54.6 37 -1.8 28.8 0 0
01:20 1018 30.06 848 25.04 12.5 54.4 37 -1.7 29 0 0
01:21 1018 30.06 848 25.04 12.3 54.2 37 -1.8 28.8 0 0
01:22 1018 30.06 847 25.01 12.2 54 37 -1.9 28.6 0 0
01:23 1018 30.06 848 25.04 12.2 53.9 38 -1.8 28.8 0 0
01:24 1018 30.06 847 25.01 12 53.6 38 -1.9 28.7 0 0
01:25 1018 30.06 847 25.01 11.9 53.5 38 -1.9 28.6 0 0
01:26 1018 30.06 847 25.01 11.9 53.4 38 -1.9 28.6 0 0
01:27 1018 30.06 847 25.01 11.9 53.4 38 -2 28.5 0 0
01:28 1018 30.06 847 25.01 11.9 53.4 38 -2 28.4 0 0
01:29 1018 30.06 847 25.01 11.9 53.4 38 -2 28.5 0 0
01:30 1018 30.06 847 25.01 12 53.6 38 -2 28.4 0 0
01:31 1018 30.06 847 25.01 12.1 53.8 37 -1.9 28.5 0 0
01:32 1018 30.06 847 25.01 12 53.7 37 -2.1 28.2 0 0
01:33 1018 30.06 847 25.01 12 53.6 37 -2.1 28.2 0 0
01:34 1018 30.06 847 25.01 12 53.6 37 -2.1 28.3 0 0
01:35 1018 30.06 847 25.01 12 53.6 37 -2.1 28.2 0 0
01:36 1018 30.06 847 25.01 12.1 53.8 36 -2.3 27.8 0 0
01:37 1018 30.06 847 25.01 12.3 54.1 36 -2.3 27.9 0 0
01:38 1018 30.06 847 25.01 12.4 54.2 36 -2.3 27.9 0 0
01:39 1018 30.06 847 25.01 12.4 54.3 36 -2.3 27.9 0 0
01:40 1018 30.06 847 25.01 12.4 54.3 36 -2.3 27.8 0 0
01:41 1018 30.06 847 25.01 12.4 54.3 36 -2.2 28 0 0
01:42 1018 30.06 847 25.01 12.3 54.1 37 -2.1 28.3 0 0
01:43 1018 30.06 847 25.01 12.1 53.8 37 -2 28.4 0 0
01:44 1018 30.06 847 25.01 11.9 53.5 37 -2.1 28.2 0 0
01:45 1018 30.06 847 25.01 12 53.6 37 -2.3 27.9 0 0
01:46 1018 30.06 847 25.01 12.1 53.8 37 -2.2 28 0 0
01:47 1018 30.06 847 25.01 12.2 53.9 36 -2.2 28 0 0
01:48 1018 30.06 847 25.01 12.3 54.1 37 -2.1 28.2 0 0
01:49 1018 30.06 847 25.01 12.2 54 37 -2.2 28.1 0 0
01:50 1018 30.06 847 25.01 12.2 54 36 -2.2 28 0 0
01:51 1018 30.06 847 25.01 12.3 54.2 36 -2.3 27.8 0 0
01:52 1018 30.06 847 25.01 12.6 54.6 35 -2.3 27.9 0 0
01:53 1018 30.06 847 25.01 12.7 54.8 35 -2.3 27.8 0 0
01:54 1018 30.06 847 25.01 12.7 54.9 35 -2.2 28 0 0
01:55 1018 30.06 847 25.01 12.7 54.8 36 -2 28.3 0 0
01:56 1018 30.06 847 25.01 12.4 54.4 36 -2.1 28.2 0 0
01:57 1018 30.06 847 25.01 12.3 54.1 36 -2.2 28 0 0
01:58 1018 30.06 847 25.01 12.2 54 36 -2.4 27.8 0 0
01:59 1018 30.06 847 25.01 12.3 54.1 36 -2.5 27.5 0 0
02:00 1018 30.06 847 25.01 12.5 54.5 34 -2.7 27.1 0 0
02:01 1018 30.06 847 25.01 12.9 55.2 34 -2.7 27.1 0 0
02:02 1018 30.06 847 25.01 13 55.5 34 -2.4 27.7 0 0
02:03 1018 30.06 847 25.01 12.9 55.1 36 -1.8 28.7 0 0
02:04 1018 30.06 847 25.01 12.5 54.5 37 -1.9 28.6 0 0
02:05 1018 30.06 847 25.01 12.2 53.9 36 -2.3 27.9 0 0
02:06 1018 30.06 847 25.01 12.2 54 37 -1.9 28.5 0 0
02:07 1018 30.06 847 25.01 12 53.7 38 -2 28.5 0 0
02:08 1018 30.06 847 25.01 11.8 53.3 38 -2 28.5 0 0
02:09 1018 30.06 847 25.01 11.7 53.1 38 -2.1 28.3 0 0
02:10 1018 30.06 847 25.01 11.6 52.9 38 -2.2 28.1 0 0
02:11 1018 30.06 847 25.01 11.6 52.9 38 -2.2 28 0 0
02:12 1018 30.06 847 25.01 11.7 53 38 -2.2 28 0 0
02:13 1018 30.06 847 25.01 11.7 53.1 38 -2.2 28 0 0
02:14 1018 30.06 847 25.01 11.8 53.2 38 -2.2 28.1 0 0
02:15 1018 30.06 847 25.01 11.7 53.1 38 -2.1 28.2 0 0
02:16 1018 30.06 847 25.01 11.6 52.9 39 -2 28.4 0 0
02:17 1018 30.06 847 25.01 11.4 52.6 39 -2 28.5 0 0
02:18 1018 30.06 847 25.01 11.2 52.2 40 -2 28.5 0 0
02:19 1018 30.06 847 25.01 11.1 52 40 -1.9 28.6 0 0
02:20 1018 30.06 847 25.01 11 51.8 40 -2 28.5 0 0
02:21 1018 30.06 847 25.01 11 51.8 40 -2 28.4 0 0
02:22 1018 30.06 847 25.01 10.9 51.6 40 -2 28.4 0 0
02:23 1018 30.06 847 25.01 10.8 51.4 41 -2 28.4 0 0
02:24 1018 30.06 847 25.01 10.7 51.2 41 -2 28.4 0 0
02:25 1018 30.06 847 25.01 10.5 50.9 41 -2 28.4 0 0
02:26 1018 30.06 847 25.01 10.2 50.4 43 -1.9 28.5 0 0
02:27 1018 30.06 847 25.01 10.1 50.1 43 -1.9 28.6 0 0
02:28 1018 30.06 847 25.01 10 50.1 43 -1.8 28.7 0 0
02:29 1018 30.06 847 25.01 10 50 43 -1.8 28.7 0 0
02:30 1018 30.06 847 25.01 10 50 44 -1.8 28.8 0 0
02:31 1018 30.06 847 25.01 10 50 44 -1.7 29 0 0
02:32 1018 30.06 847 25.01 10.1 50.1 43 -2 28.5 0 0
02:33 1018 30.06 847 25.01 9.8 49.6 44 -1.8 28.8 0 0
02:34 1018 30.06 847 25.01 9.5 49 45 -1.8 28.7 0 0
02:35 1018 30.06 847 25.01 9.3 48.8 45 -1.9 28.6 0 0
02:36 1018 30.06 847 25.01 9.3 48.8 46 -1.8 28.8 0 0
02:37 1018 30.06 847 25.01 9.1 48.3 46 -1.8 28.8 0 0
02:38 1018 30.06 847 25.01 9 48.1 47 -1.7 28.9 0 0
02:39 1018 30.06 847 25.01 9.1 48.3 47 -1.8 28.8 0 0
02:40 1018 30.06 847 25.01 9.2 48.6 46 -1.8 28.7 0 0
02:41 1018 30.06 847 25.01 9.3 48.8 46 -1.7 28.9 0 0
02:42 1018 30.06 847 25.01 9.3 48.7 46 -1.7 28.9 0 0
02:43 1018 30.06 847 25.01 9.3 48.7 46 -1.6 29 0 0
02:44 1018 30.06 847 25.01 9.3 48.7 46 -1.7 29 0 0
02:45 1018 30.06 847 25.01 9.4 49 45 -1.7 28.9 0 0
02:46 1018 30.06 847 25.01 9.6 49.3 45 -1.8 28.8 0 0
02:47 1018 30.06 847 25.01 9.7 49.5 44 -1.8 28.8 0 0
02:48 1018 30.06 847 25.01 9.8 49.7 44 -1.7 28.9 0 0
02:49 1018 30.06 847 25.01 9.8 49.7 44 -1.7 29 0 0
02:50 1018 30.06 847 25.01 9.7 49.5 45 -1.6 29 0 0
02:51 1018 30.06 847 25.01 9.7 49.5 45 -1.7 28.9 0 0
02:52 1018 30.06 847 25.01 9.8 49.6 44 -1.7 28.9 0 0
02:53 1018 30.06 847 25.01 10 49.9 44 -1.8 28.7 0 0
02:54 1018 30.06 847 25.01 10.1 50.2 43 -1.7 28.9 0 0
02:55 1018 30.06 847 25.01 10.2 50.3 43 -1.8 28.8 0 0
02:56 1018 30.06 847 25.01 10.3 50.5 43 -1.8 28.8 0 0
02:57 1018 30.06 847 25.01 10.4 50.8 43 -1.7 28.9 0 0
02:58 1018 30.06 847 25.01 10.6 51 43 -1.6 29.2 0 0
02:59 1018 30.06 847 25.01 10.6 51.1 42 -1.7 28.9 0 0
03:00 1018 30.06 847 25.01 10.9 51.6 41 -1.7 28.9 0 0
03:01 1018 30.06 847 25.01 11.1 52.1 41 -1.5 29.2 0 0
03:02 1018 30.06 847 25.01 11.2 52.2 41 -1.5 29.3 0 0
03:03 1018 30.06 847 25.01 11.3 52.3 41 -1.4 29.5 0 0
03:04 1018 30.06 847 25.01 11.2 52.1 42 -1.3 29.6 0 0
03:05 1018 30.06 847 25.01 11.2 52.1 42 -1.3 29.6 0 0
03:06 1018 30.06 847 25.01 11.2 52.1 41 -1.4 29.5 0 0
03:07 1018 30.06 847 25.01 11.1 52 41 -1.5 29.3 0 0
03:08 1018 30.06 847 25.01 11.2 52.2 40 -1.7 29 0 0
03:09 1018 30.06 847 25.01 11.4 52.5 40 -1.6 29.1 0 0
03:10 1018 30.06 847 25.01 11.5 52.6 40 -1.6 29 0 0
03:11 1018 30.06 847 25.01 11.6 52.8 40 -1.5 29.2 0 0
03:12 1018 30.06 847 25.01 11.6 52.9 40 -1.6 29.1 0 0
03:13 1018 30.06 847 25.01 11.6 52.8 40 -1.5 29.3 0 0
03:14 1018 30.06 847 25.01 11.5 52.7 40 -1.5 29.4 0 0
03:15 1018 30.06 847 25.01 11.4 52.5 40 -1.7 29 0 0
03:16 1018 30.06 847 25.01 11.4 52.6 41 -1.4 29.4 0 0
03:17 1018 30.06 847 25.01 11.3 52.4 40 -1.7 28.9 0 0
03:18 1018 30.06 847 25.01 11.3 52.4 40 -1.7 29 0 0
03:19 1018 30.06 847 25.01 11.3 52.4 40 -1.7 28.9 0 0
03:20 1018 30.06 847 25.01 11.3 52.4 40 -1.6 29.2 0 0
03:21 1018 30.06 847 25.01 11.2 52.2 41 -1.5 29.3 0 0
03:22 1018 30.06 847 25.01 11.1 52 41 -1.5 29.2 0 0
03:23 1018 30.06 847 25.01 11 51.8 41 -1.6 29.1 0 0
03:24 1018 30.06 847 25.01 11 51.7 41 -1.7 29 0 0
03:25 1018 30.06 847 25.01 10.9 51.7 41 -1.8 28.8 0 0
03:26 1018 30.06 847 25.01 11 51.8 41 -1.8 28.7 0 0
03:27 1018 30.06 847 25.01 11.2 52.1 39 -2.2 28.1 0 0
03:28 1018 30.06 847 25.01 11.6 52.9 37 -2.5 27.6 0 0
03:29 1018 30.06 847 25.01 12.1 53.7 37 -2 28.3 0 0
03:30 1018 30.06 847 25.01 12.1 53.8 38 -1.8 28.7 0 0
03:31 1018 30.06 847 25.01 12.1 53.7 39 -1.6 29.2 0 0
03:32 1018 30.06 847 25.01 11.8 53.3 39 -1.5 29.4 0 0
03:33 1018 30.06 847 25.01 11.6 52.8 40 -1.6 29.2 0 0
03:34 1018 30.06 847 25.01 11.4 52.4 40 -1.6 29.1 0 0
03:35 1018 30.06 847 25.01 11.2 52.2 41 -1.5 29.2 0 0
03:36 1018 30.06 847 25.01 11.1 51.9 42 -1.3 29.7 0 0
03:37 1018 30.06 847 25.01 10.7 51.2 44 -1.2 29.8 0 0
03:38 1018 30.06 847 25.01 10.3 50.6 45 -1.1 30 0 0
03:39 1018 30.06 847 25.01 10 50 46 -1.1 29.9 0 0
03:40 1018 30.06 847 25.01 9.9 49.7 46 -1.2 29.8 0 0
03:41 1018 30.06 847 25.01 9.8 49.7 45 -1.4 29.5 0 0
03:42 1018 30.06 847 25.01 9.9 49.9 45 -1.3 29.6 0 0
03:43 1018 30.06 847 25.01 10 49.9 45 -1.5 29.3 0 0
03:44 1018 30.06 847 25.01 10 49.9 45 -1.4 29.4 0 0
03:45 1018 30.06 847 25.01 9.9 49.8 45 -1.4 29.5 0 0
03:46 1018 30.06 847 25.01 9.7 49.4 46 -1.4 29.5 0 0
03:47 1018 30.06 847 25.01 9.6 49.3 47 -1.2 29.9 0 0
03:48 1018 30.06 847 25.01 9.5 49 48 -1.1 30 0 0
03:49 1018 30.06 847 25.01 9.2 48.6 48 -1.3 29.6 0 0
03:50 1018 30.06 847 25.01 9.2 48.5 48 -1.3 29.6 0 0
03:51 1018 30.06 847 25.01 9.2 48.5 48 -1.4 29.6 0 0
03:52 1018 30.06 847 25.01 9.2 48.5 48 -1.4 29.6 0 0
03:53 1018 30.06 847 25.01 9.1 48.4 47 -1.4 29.4 0 0
03:54 1018 30.06 847 25.01 9 48.1 48 -1.3 29.6 0 0
03:55 1018 30.06 847 25.01 8.9 47.9 49 -1.3 29.7 0 0
03:56 1018 30.06 847 25.01 8.9 48 50 -1.1 30.1 0 0
03:57 1018 30.06 847 25.01 9 48.2 50 -0.8 30.5 0 0
03:58 1018 30.06 847 25.01 9.5 49 48 -1 30.1 0 0
03:59 1018 30.06 847 25.01 10.2 50.4 46 -0.9 30.4 0 0
04:00 1018 30.06 847 25.01 10.8 51.4 44 -0.9 30.4 0 0
04:01 1018 30.06 847 25.01 11.2 52.2 43 -1 30.2 0 0
04:02 1018 30.06 847 25.01 11.7 53.1 41 -0.9 30.3 0 0
04:03 1018 30.06 847 25.01 12 53.7 40 -1 30.1 0 0
04:04 1018 30.06 847 25.01 12.4 54.3 39 -1.2 29.8 0 0
04:05 1018 30.06 847 25.01 12.8 55 38 -1.2 29.9 0 0
04:06 1018 30.06 847 25.01 13.1 55.6 37 -1.2 29.9 0 0
04:07 1018 30.06 847 25.01 13.4 56.2 36 -1.3 29.6 0 0
04:08 1018 30.06 847 25.01 13.9 57 35 -1.3 29.7 0 0
04:09 1018 30.06 847 25.01 14.2 57.5 35 -1.1 29.9 0 0
04:10 1018 30.06 847 25.01 14.3 57.7 35 -1.1 30 0 0
04:11 1018 30.06 847 25.01 14.3 57.7 34 -1.2 29.9 0 0
04:12 1018 30.06 847 25.01 14.3 57.8 34 -1.4 29.5 0 0
04:13 1018 30.06 847 25.01 14.5 58.1 33 -1.4 29.4 0 0
04:14 1018 30.06 847 25.01 14.6 58.3 33 -1.5 29.3 0 0
04:15 1018 30.06 847 25.01 14.7 58.5 33 -1.5 29.4 0 0
04:16 1018 30.06 847 25.01 14.9 58.8 33 -1.3 29.7 0 0
04:17 1018 30.06 847 25.01 15 59 32 -1.3 29.7 0 0
04:18 1018 30.06 847 25.01 15.1 59.1 32 -1.2 29.8 0 0
04:19 1018 30.06 847 25.01 15.1 59.1 32 -1.2 29.8 0 0
04:20 1018 30.06 847 25.01 15.3 59.5 32 -1.3 29.7 0 0
04:21 1018 30.06 847 25.01 15.5 60 31 -1.3 29.6 0 0
04:22 1018 30.06 847 25.01 15.7 60.2 31 -1.3 29.6 0 0
04:23 1018 30.06 847 25.01 15.9 60.5 30 -1.4 29.5 0 0
04:24 1018 30.06 847 25.01 16 60.8 30 -1.4 29.4 0 0
04:25 1018 30.06 847 25.01 16.1 60.9 30 -1.2 29.8 0 0
04:26 1018 30.06 847 25.01 16 60.8 31 -1 30.3 0 0
04:27 1018 30.06 847 25.01 15.7 60.2 31 -1.4 29.5 0 0
04:28 1018 30.06 847 25.01 15 59 32 -1.4 29.4 0 0
04:29 1018 30.06 847 25.01 14.2 57.5 33 -1.7 29 0 0
04:30 1018 30.06 847 25.01 13.6 56.4 34 -1.8 28.7 0 0
04:31 1018 30.06 847 25.01 13.2 55.8 35 -1.9 28.6 0 0
04:32 1018 30.06 847 25.01 13 55.3 36 -1.7 29 0 0
04:33 1018 30.06 847 25.01 12.5 54.6 38 -1.5 29.3 0 0
04:34 1018 30.06 847 25.01 12.1 53.9 38 -1.8 28.8 0 0
04:35 1018 30.06 847 25.01 12 53.6 38 -1.8 28.7 0 0
04:36 1018 30.06 847 25.01 12.1 53.8 38 -1.7 28.9 0 0
04:37 1018 30.06 847 25.01 12.1 53.7 39 -1.5 29.3 0 0
04:38 1018 30.06 847 25.01 12.2 53.9 38 -1.7 29 0 0
04:39 1018 30.06 847 25.01 12.4 54.2 39 -1.3 29.6 0 0
04:40 1018 30.06 847 25.01 12.2 53.9 38 -1.6 29.2 0 0
04:41 1018 30.06 847 25.01 11.9 53.3 39 -1.4 29.4 0 0
04:42 1018 30.06 847 25.01 11.6 52.8 40 -1.4 29.6 0 0
04:43 1018 30.06 847 25.01 11.6 52.9 39 -1.7 29 0 0
04:44 1018 30.06 847 25.01 11.9 53.5 38 -1.7 28.9 0 0
04:45 1018 30.06 847 25.01 12.2 53.9 38 -1.6 29.2 0 0
04:46 1018 30.06 847 25.01 12.5 54.4 38 -1.6 29.2 0 0
04:47 1018 30.06 847 25.01 12.7 54.9 35 -2.4 27.7 0 0
04:48 1018 30.06 847 25.01 13.4 56.1 33 -2.4 27.6 0 0
04:49 1018 30.06 847 25.01 13.8 56.8 33 -1.9 28.5 0 0
04:50 1018 30.06 847 25.01 13.8 56.9 34 -1.7 28.9 0 0
04:51 1018 30.06 847 25.01 13.6 56.6 33 -2.3 27.8 0 0
04:52 1018 30.06 847 25.01 14.1 57.4 32 -2.2 28 0 0
04:53 1018 30.06 847 25.01 14.7 58.5 32 -1.9 28.6 0 0
04:54 1018 30.06 847 25.01 14.9 58.9 31 -2 28.4 0 0
04:55 1018 30.06 847 25.01 15.1 59.1 31 -1.9 28.6 0 0
04:56 1018 30.06 847 25.01 15.1 59.1 32 -1.6 29.2 0 0
04:57 1018 30.06 847 25.01 14.7 58.5 33 -1.5 29.3 0 0
04:58 1018 30.06 847 25.01 14.3 57.7 34 -1.4 29.4 0 0
04:59 1018 30.06 847 25.01 13.7 56.7 34 -1.8 28.8 0 0
05:00 1018 30.06 847 25.01 13.3 55.9 35 -1.7 28.9 0 0
05:01 1018 30.06 847 25.01 13 55.4 36 -1.6 29.1 0 0
05:02 1018 30.06 847 25.01 12.7 54.9 37 -1.5 29.2 0 0
05:03 1018 30.06 847 25.01 12.5 54.5 37 -1.6 29.1 0 0
05:04 1018 30.06 847 25.01 12.2 54 38 -1.7 28.9 0 0
05:05 1018 30.06 847 25.01 12.1 53.7 39 -1.6 29.2 0 0
05:06 1018 30.06 847 25.01 11.9 53.3 39 -1.6 29.1 0 0
05:07 1018 30.06 847 25.01 11.7 53.1 39 -1.7 29 0 0
05:08 1018 30.06 847 25.01 11.6 52.9 39 -1.7 28.9 0 0
05:09 1018 30.06 847 25.01 11.5 52.7 40 -1.6 29 0 0
05:10 1018 30.06 847 25.01 11.3 52.4 40 -1.8 28.7 0 0
05:11 1018 30.06 847 25.01 11.3 52.4 40 -1.7 28.9 0 0
05:12 1018 30.06 847 25.01 11.1 52.1 41 -1.7 29 0 0
05:13 1018 30.06 847 25.01 11 51.8 41 -1.6 29.2 0 0
05:14 1018 30.06 847 25.01 10.9 51.6 42 -1.5 29.3 0 0
05:15 1018 30.06 847 25.01 10.8 51.5 42 -1.5 29.3 0 0
05:16 1018 30.06 847 25.01 10.8 51.5 42 -1.6 29.2 0 0
05:17 1018 30.06 847 25.01 10.9 51.6 42 -1.6 29.1 0 0
05:18 1018 30.06 847 25.01 11 51.8 41 -1.6 29.1 0 0
05:19 1018 30.06 847 25.01 11 51.9 41 -1.6 29.1 0 0
05:20 1018 30.06 847 25.01 11.1 51.9 41 -1.6 29.1 0 0
05:21 1018 30.06 847 25.01 11.1 52 41 -1.6 29.2 0 0
05:22 1018 30.06 847 25.01 11.1 51.9 41 -1.5 29.2 0 0
05:23 1018 30.06 847 25.01 11 51.7 42 -1.4 29.4 0 0
05:24 1018 30.06 847 25.01 10.7 51.3 43 -1.4 29.5 0 0
05:25 1018 30.06 847 25.01 10.6 51 43 -1.5 29.3 0 0
05:26 1018 30.06 847 25.01 10.5 50.9 43 -1.6 29.2 0 0
05:27 1018 30.06 847 25.01 10.6 51 43 -1.5 29.3 0 0
05:28 1018 30.06 847 25.01 10.5 50.9 43 -1.5 29.3 0 0
05:29 1018 30.06 847 25.01 10.4 50.8 43 -1.5 29.3 0 0
05:30 1018 30.06 847 25.01 10.4 50.7 43 -1.5 29.3 0 0
05:31 1018 30.06 847 25.01 10.3 50.6 43 -1.5 29.2 0 0
05:32 1018 30.06 847 25.01 10.3 50.6 43 -1.6 29.1 0 0
05:33 1018 30.06 847 25.01 10.4 50.7 43 -1.6 29.1 0 0
05:34 1018 30.06 847 25.01 10.6 51.1 42 -1.9 28.6 0 0
05:35 1018 30.06 847 25.01 11 51.7 40 -1.9 28.5 0 0
05:36 1018 30.06 847 25.01 11.4 52.4 40 -1.8 28.8 0 0
05:37 1018 30.06 847 25.01 11.6 52.8 39 -1.8 28.8 0 0
05:38 1018 30.06 847 25.01 11.7 53.1 39 -1.7 28.9 0 0
05:39 1018 30.06 847 25.01 11.7 53.1 39 -1.7 28.9 0 0
05:40 1018 30.06 847 25.01 11.6 53 39 -1.8 28.7 0 0
05:41 1018 30.06 847 25.01 11.7 53.1 39 -1.9 28.7 0 0
05:42 1018 30.06 847 25.01 11.8 53.2 38 -2 28.5 0 0
05:43 1018 30.06 847 25.01 12 53.6 38 -2 28.5 0 0
05:44 1018 30.06 847 25.01 12.1 53.7 38 -1.7 28.9 0 0
05:45 1018 30.06 847 25.01 12 53.6 38 -1.7 28.9 0 0
05:46 1018 30.06 847 25.01 12 53.5 39 -1.6 29.1 0 0
05:47 1018 30.06 847 25.01 12 53.7 38 -1.7 29 0 0
05:48 1018 30.06 847 25.01 12.1 53.8 38 -1.8 28.7 0 0
05:49 1018 30.06 847 25.01 12.3 54.2 37 -2.1 28.3 0 0
05:50 1018 30.06 847 25.01 12.6 54.7 36 -2.1 28.3 0 0
05:51 1018 30.06 847 25.01 12.8 55 36 -1.8 28.7 0 0
05:52 1018 30.06 847 25.01 12.7 54.9 36 -1.8 28.7 0 0
05:53 1018 30.06 847 25.01 12.7 54.8 36 -1.9 28.6 0 0
05:54 1018 30.06 847 25.01 12.6 54.8 36 -2 28.4 0 0
05:55 1018 30.06 847 25.01 12.8 55 36 -2.1 28.3 0 0
05:56 1018 30.06 847 25.01 12.9 55.2 35 -2.1 28.1 0 0
05:57 1018 30.06 847 25.01 13 55.4 34 -2.2 28 0 0
05:58 1018 30.06 847 25.01 13.2 55.8 34 -2.3 27.9 0 0
05:59 1018 30.06 847 25.01 13.4 56 33 -2.3 27.8 0 0
06:00 1018 30.06 847 25.01 13.6 56.4 33 -2.3 27.8 0 0
06:01 1018 30.06 847 25.01 13.7 56.7 33 -2.3 27.8 0 0
06:02 1018 30.06 847 25.01 13.8 56.8 33 -2.3 27.9 0 0
06:03 1018 30.06 847 25.01 13.7 56.7 33 -2.3 27.9 0 0
06:04 1018 30.06 847 25.01 13.8 56.8 33 -2.3 27.8 0 0
06:05 1018 30.06 847 25.01 13.8 56.8 33 -2.3 27.8 0 0
06:06 1018 30.06 847 25.01 13.8 56.8 32 -2.5 27.6 0 0
06:07 1018 30.06 847 25.01 13.8 56.9 32 -2.5 27.5 0 0
06:08 1018 30.06 847 25.01 14.1 57.3 32 -2.5 27.5 0 0
06:09 1018 30.06 847 25.01 14.3 57.7 31 -2.4 27.8 0 0
06:10 1018 30.06 847 25.01 14.3 57.7 31 -2.5 27.6 0 0
06:11 1018 30.06 847 25.01 14.3 57.8 32 -2.3 27.9 0 0
06:12 1018 30.06 847 25.01 14.2 57.5 32 -2 28.3 0 0
06:13 1018 30.06 847 25.01 13.8 56.8 35 -1.5 29.2 0 0
06:14 1018 30.06 847 25.01 13 55.3 36 -1.7 28.9 0 0
06:15 1018 30.06 847 25.01 12.5 54.5 36 -2.1 28.2 0 0
06:16 1018 30.06 847 25.01 12.6 54.6 35 -2.4 27.7 0 0
06:17 1018 30.06 847 25.01 12.8 55.1 34 -2.7 27.2 0 0
06:18 1018 30.06 847 25.01 13.2 55.8 33 -2.6 27.4 0 0
06:19 1018 30.06 847 25.01 13.5 56.2 33 -2.6 27.4 0 0
06:20 1018 30.06 847 25.01 13.7 56.7 32 -2.6 27.3 0 0
06:21 1018 30.06 847 25.01 14 57.2 32 -2.4 27.7 0 0
06:22 1018 30.06 847 25.01 13.8 56.9 35 -1.3 29.7 0 0
06:23 1018 30.06 847 25.01 13.2 55.8 36 -1.6 29.1 0 0
06:24 1018 30.06 847 25.01 13 55.5 35 -1.9 28.6 0 0
06:25 1018 30.06 847 25.01 13.1 55.6 34 -2.2 28 0 0
06:26 1018 30.06 847 25.01 13.2 55.8 35 -2 28.4 0 0
06:27 1018 30.06 847 25.01 13.2 55.7 36 -1.5 29.2 0 0
06:28 1018 30.06 847 25.01 13.1 55.5 35 -2.1 28.3 0 0
06:29 1018 30.06 847 25.01 13 55.5 34 -2.2 28 0 0
06:30 1018 30.06 847 25.01 13.2 55.8 33 -2.5 27.5 0 0
06:31 1018 30.06 847 25.01 13.5 56.3 33 -2.5 27.6 0 0
06:32 1018 30.06 847 25.01 13.8 56.8 33 -2 28.4 0 0
06:33 1018 30.06 847 25.01 13.7 56.6 36 -1.2 29.9 0 0
06:34 1018 30.06 847 25.01 13.2 55.8 37 -1.2 29.9 0 0
06:35 1018 30.06 847 25.01 12.9 55.1 38 -1.2 29.8 0 0
06:36 1018 30.06 847 25.01 12.6 54.7 38 -1.1 30 0 0
06:37 1018 30.06 847 25.01 12.4 54.4 38 -1.4 29.5 0 0
06:38 1018 30.06 847 25.01 12.3 54.2 39 -1.3 29.7 0 0
06:39 1018 30.06 847 25.01 12.3 54.1 39 -1.2 29.8 0 0
06:40 1018 30.06 847 25.01 12.2 53.9 39 -1.3 29.6 0 0
06:41 1018 30.06 847 25.01 12.1 53.8 39 -1.2 29.8 0 0
06:42 1018 30.06 847 25.01 12 53.6 39 -1.3 29.7 0 0
06:43 1018 30.06 847 25.01 11.8 53.3 40 -1.4 29.5 0 0
06:44 1018 30.06 847 25.01 11.7 53 40 -1.4 29.5 0 0
06:45 1018 30.06 847 25.01 11.7 53.1 40 -1.4 29.5 0 0
06:46 1018 30.06 847 25.01 11.8 53.3 40 -1.4 29.4 0 0
06:47 1018 30.06 847 25.01 12 53.5 39 -1.6 29.2 0 0
06:48 1018 30.06 847 25.01 12.2 54 38 -1.5 29.4 0 0
06:49 1018 30.06 847 25.01 12.4 54.3 36 -2.1 28.1 0 0
06:50 1018 30.06 847 25.01 12.8 55 37 -1.4 29.5 0 0
06:51 1018 30.06 847 25.01 12.7 54.8 38 -1.2 29.9 0 0
06:52 1018 30.06 847 25.01 12.3 54.1 39 -1.1 30 0 0
06:53 1018 30.06 847 25.01 11.9 53.5 39 -1.6 29.1 0 0
06:54 1018 30.06 847 25.01 11.9 53.5 39 -1.5 29.4 0 0
06:55 1018 30.06 847 25.01 11.9 53.4 39 -1.6 29.2 0 0
06:56 1018 30.06 847 25.01 11.8 53.3 39 -1.5 29.4 0 0
06:57 1018 30.06 847 25.01 11.6 52.9 40 -1.5 29.3 0 0
06:58 1018 30.06 847 25.01 11.5 52.8 40 -1.5 29.3 0 0
06:59 1018 30.06 847 25.01 11.6 52.8 40 -1.6 29.2 0 0
07:00 1018 30.06 847 25.01 11.6 52.9 40 -1.5 29.2 0 0
07:01 1018 30.06 847 25.01 11.6 52.9 40 -1.6 29.2 0 0
07:02 1018 30.06 847 25.01 11.6 53 40 -1.5 29.3 0 0
07:03 1018 30.06 847 25.01 11.5 52.7 40 -1.5 29.3 0 0
07:04 1018 30.06 847 25.01 11.5 52.6 40 -1.5 29.3 0 0
07:05 1018 30.06 847 25.01 11.4 52.6 40 -1.5 29.3 0 0
07:06 1018 30.06 847 25.01 11.4 52.6 40 -1.6 29.2 0 0
07:07 1018 30.06 847 25.01 11.5 52.7 40 -1.7 28.9 0 0
07:08 1018 30.06 847 25.01 11.6 52.8 39 -1.7 29 0 0
07:09 1018 30.06 847 25.01 11.6 52.9 39 -1.8 28.8 0 0
07:10 1018 30.06 847 25.01 11.7 53 39 -1.8 28.7 0 0
07:11 1018 30.06 847 25.01 11.8 53.2 39 -1.8 28.8 0 0
07:12 1018 30.06 847 25.01 11.8 53.3 39 -1.7 29 0 0
07:13 1018 30.06 847 25.01 11.7 53 40 -1.5 29.3 0 0
07:14 1018 30.06 847 25.01 11.5 52.7 40 -1.5 29.3 0 0
07:15 1018 30.06 847 25.01 11.3 52.4 41 -1.5 29.3 0 0
07:16 1018 30.06 847 25.01 11.3 52.3 41 -1.6 29.1 0 0
07:17 1018 30.06 847 25.01 11.3 52.4 40 -1.6 29.1 0 0
07:18 1018 30.06 847 25.01 11.3 52.4 41 -1.5 29.3 0 0
07:19 1018 30.06 847 25.01 11.4 52.4 41 -1.5 29.4 0 0
07:20 1018 30.06 847 25.01 11.3 52.3 41 -1.5 29.3 0 0
07:21 1018 30.06 847 25.01 11.3 52.3 41 -1.5 29.4 0 0
07:22 1018 30.06 847 25.01 11.2 52.2 41 -1.5 29.4 0 0
07:23 1018 30.06 847 25.01 11.2 52.2 41 -1.4 29.5 0 0
07:24 1018 30.06 847 25.01 11.2 52.1 41 -1.4 29.5 0 0
07:25 1018 30.06 847 25.01 11.2 52.1 42 -1.3 29.6 0 0
07:26 1018 30.06 847 25.01 11.1 52 42 -1.3 29.6 0 0
07:27 1018 30.06 847 25.01 11.1 51.9 42 -1.3 29.6 0 0
07:28 1018 30.06 847 25.01 11 51.7 43 -1.2 29.9 0 0
07:29 1018 30.06 847 25.01 10.8 51.5 43 -1.2 29.9 0 0
07:30 1018 30.06 847 25.01 10.8 51.4 43 -1.1 29.9 0 0
07:31 1018 30.06 847 25.01 10.7 51.3 44 -1.1 30 0 0
07:32 1018 30.06 847 25.01 10.7 51.3 44 -1.2 29.9 0 0
07:33 1018 30.06 847 25.01 10.7 51.2 43 -1.2 29.8 0 0
07:34 1018 30.06 847 25.01 10.7 51.2 44 -1.2 29.9 0 0
07:35 1018 30.06 847 25.01 10.6 51.1 44 -1 30.2 0 0
07:36 1018 30.06 847 25.01 10.6 51.1 44 -1 30.3 0 0
07:37 1018 30.06 847 25.01 10.7 51.3 44 -0.9 30.4 0 0
07:38 1018 30.06 847 25.01 10.8 51.4 45 -0.8 30.6 0 0
07:39 1018 30.06 847 25.01 10.8 51.4 45 -0.6 31 0 0
07:40 1018 30.06 847 25.01 10.9 51.5 46 -0.1 31.8 0 0
07:41 1017 30.03 847 25.01 10.9 51.6 47 -0 32 0 0
07:42 1017 30.03 847 25.01 11.1 52 46 -0.1 31.8 0 0
07:43 1017 30.03 847 25.01 11.3 52.4 45 -0.2 31.7 0 0
07:44 1017 30.03 847 25.01 11.7 53 43 -0.3 31.4 0 0
07:45 1017 30.03 847 25.01 12.1 53.7 42 -0.5 31.1 0 0
07:46 1017 30.03 847 25.01 12.4 54.3 42 -0.1 31.7 0 0
07:47 1017 30.03 847 25.01 12.6 54.6 42 0.1 32.3 0 0
07:48 1017 30.03 847 25.01 12.6 54.7 42 0.2 32.3 0 0
07:49 1017 30.03 847 25.01 12.6 54.7 43 0.3 32.5 0 0
07:50 1017 30.03 847 25.01 12.6 54.7 42 0.1 32.2 0 0
07:51 1017 30.03 847 25.01 12.7 54.8 42 0.1 32.1 0 0
07:52 1017 30.03 847 25.01 12.7 54.9 41 -0.1 31.9 0 0
07:53 1017 30.03 847 25.01 12.9 55.2 41 0.1 32.1 0 0
07:54 1017 30.03 847 25.01 13 55.4 41 0 32.1 0 0
07:55 1017 30.03 847 25.01 13.1 55.6 41 0.2 32.3 0 0
07:56 1017 30.03 847 25.01 13.2 55.8 40 0.1 32.2 0 0
07:57 1017 30.03 847 25.01 13.2 55.8 40 0.1 32.1 0 0
07:58 1017 30.03 847 25.01 13.2 55.8 40 -0 31.9 0 0
07:59 1017 30.03 847 25.01 13.3 56 40 -0 32 0 0
08:00 1017 30.03 847 25.01 13.5 56.2 39 0 32 0 0
08:01 1017 30.03 847 25.01 13.6 56.4 40 0.3 32.5 0 0
08:02 1017 30.03 847 25.01 13.6 56.4 39 0.1 32.2 0 0
08:03 1017 30.03 847 25.01 13.6 56.5 39 0.1 32.1 0 0
08:04 1018 30.06 847 25.01 13.7 56.7 40 0.4 32.7 0 0
08:05 1017 30.03 847 25.01 13.8 56.8 38 -0.1 31.8 0 0
08:06 1018 30.06 847 25.01 13.9 57.1 38 -0.1 31.8 0 0
08:07 1018 30.06 847 25.01 14.1 57.4 37 -0.2 31.6 0 0
08:08 1017 30.03 847 25.01 14.3 57.7 37 -0.1 31.9 0 0
08:09 1017 30.03 847 25.01 14.4 57.9 37 -0.2 31.7 0 0
08:10 1017 30.03 847 25.01 14.4 58 37 0 32.1 0 0
08:11 1017 30.03 847 25.01 14.6 58.2 36 -0.3 31.4 0 0
08:12 1017 30.03 847 25.01 14.7 58.4 35 -0.4 31.3 0 0
08:13 1017 30.03 847 25.01 14.8 58.7 35 -0.5 31.2 0 0
08:14 1017 30.03 847 25.01 14.9 58.8 35 -0.2 31.6 0 0
08:15 1017 30.03 847 25.01 14.9 58.8 36 -0.1 31.8 0 0
08:16 1017 30.03 847 25.01 14.9 58.8 35 -0.2 31.6 0 0
08:17 1017 30.03 847 25.01 14.9 58.9 36 -0 32 0 0
08:18 1017 30.03 847 25.01 15 58.9 35 -0.2 31.6 0 0
08:19 1017 30.03 847 25.01 15 59.1 35 -0.3 31.5 0 0
08:20 1018 30.06 847 25.01 15.1 59.2 35 -0.3 31.5 0 0
08:21 1018 30.06 847 25.01 15.1 59.3 35 -0.2 31.6 0 0
08:22 1018 30.06 847 25.01 15.2 59.3 35 -0.2 31.6 0 0
08:23 1018 30.06 847 25.01 15.2 59.4 35 -0.1 31.8 0 0
08:24 1018 30.06 847 25.01 15.3 59.5 35 -0.1 31.8 0 0
08:25 1018 30.06 847 25.01 15.3 59.6 35 0.1 32.2 0 0
08:26 1018 30.06 847 25.01 15.4 59.7 34 -0.1 31.8 0 0
08:27 1018 30.06 847 25.01 15.5 59.8 34 -0 31.9 0 0
08:28 1018 30.06 847 25.01 15.5 59.8 34 -0.2 31.6 0 0
08:29 1018 30.06 847 25.01 15.6 60 33 -0.4 31.4 0 0
08:30 1018 30.06 847 25.01 15.7 60.2 33 -0.3 31.4 0 0
08:31 1018 30.06 847 25.01 15.7 60.2 35 0.2 32.3 0 0
08:32 1017 30.03 847 25.01 15.7 60.3 35 0.3 32.5 0 0
08:33 1017 30.03 847 25.01 15.8 60.4 35 0.5 33 0 0
08:34 1017 30.03 847 25.01 15.8 60.5 34 -0.1 31.8 0 0
08:35 1017 30.03 847 25.01 15.9 60.6 33 -0.1 31.8 0 0
08:36 1017 30.03 847 25.01 16 60.7 34 0 32.1 0 0
08:37 1017 30.03 847 25.01 16 60.8 33 -0.3 31.5 0 0
08:38 1017 30.03 847 25.01 16.1 61.1 33 0.1 32.2 0 0
08:39 1017 30.03 847 25.01 16.2 61.2 33 0.2 32.3 0 0
08:40 1017 30.03 847 25.01 16.3 61.3 33 0.1 32.2 0 0
08:41 1017 30.03 847 25.01 16.3 61.4 33 0.2 32.3 0 0
08:42 1017 30.03 847 25.01 16.4 61.5 33 0.3 32.6 0 0
08:43 1017 30.03 847 25.01 16.4 61.6 34 0.5 32.9 0 0
08:44 1017 30.03 847 25.01 16.5 61.6 34 0.7 33.3 0 0
08:45 1017 30.03 847 25.01 16.5 61.7 33 0.2 32.4 0 0
08:46 1017 30.03 847 25.01 16.5 61.7 33 0.3 32.5 0 0
08:47 1017 30.03 847 25.01 16.6 61.9 33 0.5 32.9 0 0
08:48 1017 30.03 847 25.01 16.7 62.1 33 0.7 33.2 0 0
08:49 1017 30.03 847 25.01 16.8 62.3 33 0.5 32.9 0 0
08:50 1017 30.03 847 25.01 16.9 62.5 32 0.2 32.4 0 0
08:51 1017 30.03 847 25.01 16.9 62.5 32 0.2 32.3 0 0
08:52 1017 30.03 847 25.01 17 62.6 33 0.8 33.5 0 0
08:53 1017 30.03 847 25.01 17.1 62.8 32 0.5 32.9 0 0
08:54 1017 30.03 847 25.01 17.2 63 31 0.3 32.5 0 0
08:55 1017 30.03 847 25.01 17.3 63.2 33 0.8 33.5 0 0
08:56 1018 30.06 847 25.01 17.5 63.4 30 -0 32 0 0
08:57 1018 30.06 847 25.01 17.6 63.7 30 0 32 0 0
08:58 1018 30.06 847 25.01 17.7 63.9 30 -0.1 31.9 0 0
08:59 1018 30.06 847 25.01 17.8 64 31 0.4 32.7 0 0
09:00 1018 30.06 847 25.01 17.9 64.3 28 -0.8 30.5 0 0
09:01 1018 30.06 847 25.01 18 64.5 30 0.1 32.2 0 0
09:02 1018 30.06 847 25.01 18.1 64.6 30 0.2 32.4 0 0
09:03 1018 30.06 847 25.01 18.2 64.7 30 0.3 32.5 0 0
09:04 1018 30.06 847 25.01 18.1 64.6 31 0.7 33.3 0 0
09:05 1018 30.06 847 25.01 17.6 63.6 32 0.7 33.2 0 0
09:06 1018 30.06 847 25.01 17.1 62.7 33 0.8 33.5 0 0
09:07 1018 30.06 847 25.01 16.8 62.2 32 0.2 32.4 0 0
09:08 1018 30.06 847 25.01 16.7 62 33 0.5 33 0 0
09:09 1018 30.06 847 25.01 16.6 61.8 32 -0.1 31.8 0 0
09:10 1018 30.06 847 25.01 16.5 61.7 34 0.6 33 0 0
09:11 1018 30.06 847 25.01 16.5 61.8 32 -0.1 31.8 0 0
09:12 1018 30.06 847 25.01 16.7 62 29 -1.5 29.4 0 0
09:13 1018 30.06 847 25.01 16.8 62.2 29 -1.3 29.6 0 0
09:14 1018 30.06 847 25.01 16.8 62.3 29 -1 30.3 0 0
09:15 1018 30.06 847 25.01 16.8 62.3 29 -1 30.2 0 0
09:16 1018 30.06 847 25.01 16.8 62.3 29 -1 30.2 0 0
09:17 1018 30.06 847 25.01 16.8 62.3 29 -1.2 29.9 0 0
09:18 1018 30.06 847 25.01 16.9 62.5 30 -0.5 31.2 0 0
09:19 1018 30.06 847 25.01 17 62.6 29 -0.8 30.6 0 0
09:20 1018 30.06 847 25.01 17.1 62.8 29 -0.8 30.6 0 0
09:21 1018 30.06 847 25.01 17.1 62.8 29 -1.1 30.1 0 0
09:22 1018 30.06 847 25.01 17.1 62.8 29 -1 30.2 0 0
09:23 1018 30.06 847 25.01 17.2 62.9 29 -0.7 30.7 0 0
09:24 1018 30.06 847 25.01 17.4 63.2 30 -0.3 31.4 0 0
09:25 1018 30.06 847 25.01 17.5 63.6 30 -0.1 31.9 0 0
09:26 1018 30.06 847 25.01 17.7 63.8 28 -1.1 30 0 0
09:27 1018 30.06 847 25.01 17.7 63.9 27 -1.3 29.6 0 0
09:28 1018 30.06 847 25.01 17.7 63.9 27 -1.3 29.6 0 0
09:29 1018 30.06 847 25.01 17.7 63.8 28 -0.9 30.3 0 0
09:30 1018 30.06 847 25.01 17.7 63.9 29 -0.6 30.9 0 0
09:31 1018 30.06 847 25.01 17.8 64 28 -0.6 30.9 0 0
09:32 1018 30.06 847 25.01 17.8 64 28 -0.8 30.5 0 0
09:33 1018 30.06 847 25.01 17.7 63.8 29 -0.6 30.9 0 0
09:34 1018 30.06 847 25.01 17.7 63.8 29 -0.4 31.2 0 0
09:35 1018 30.06 847 25.01 17.7 63.8 29 -0.5 31 0 0
09:36 1018 30.06 847 25.01 17.7 63.9 29 -0.2 31.6 0 0
09:37 1018 30.06 847 25.01 17.8 64.1 28 -0.7 30.7 0 0
09:38 1018 30.06 847 25.01 17.8 64.1 28 -0.7 30.7 0 0
09:39 1018 30.06 847 25.01 17.8 64.1 29 -0.3 31.5 0 0
09:40 1018 30.06 847 25.01 17.8 64.1 29 -0.1 31.8 0 0
09:41 1018 30.06 847 25.01 18 64.4 28 -0.5 31 0 0
09:42 1018 30.06 847 25.01 18 64.5 29 -0.1 31.8 0 0
09:43 1018 30.06 847 25.01 18.1 64.5 29 -0 31.9 0 0
09:44 1018 30.06 847 25.01 18.2 64.7 28 -0.3 31.4 0 0
09:45 1018 30.06 847 25.01 18.2 64.7 27 -1 30.2 0 0
09:46 1018 30.06 847 25.01 18.1 64.6 28 -0.6 30.9 0 0
09:47 1018 30.06 847 25.01 18.2 64.7 27 -0.9 30.4 0 0
09:48 1018 30.06 847 25.01 18.2 64.8 28 -0.2 31.6 0 0
09:49 1018 30.06 847 25.01 18.4 65 28 -0.2 31.6 0 0
09:50 1018 30.06 847 25.01 18.4 65.2 27 -0.8 30.6 0 0
09:51 1018 30.06 847 25.01 18.4 65.1 27 -0.6 30.9 0 0
09:52 1018 30.06 847 25.01 18.4 65 27 -0.8 30.6 0 0
09:53 1018 30.06 847 25.01 18.2 64.8 27 -0.8 30.6 0 0
09:54 1018 30.06 847 25.01 18.2 64.7 28 -0.6 30.9 0 0
09:55 1018 30.06 847 25.01 18.2 64.8 26 -1.2 29.8 0 0
09:56 1018 30.06 847 25.01 18.2 64.7 27 -0.8 30.5 0 0
09:57 1018 30.06 847 25.01 18.1 64.5 28 -0.7 30.7 0 0
09:58 1018 30.06 847 25.01 18 64.5 28 -0.8 30.5 0 0
09:59 1018 30.06 847 25.01 18.1 64.5 27 -1.2 29.9 0 0
10:00 1018 30.06 847 25.01 18.1 64.6 27 -0.8 30.5 0 0
10:01 1018 30.06 847 25.01 18.2 64.7 27 -0.8 30.6 0 0
10:02 1018 30.06 847 25.01 18.3 64.9 27 -1.1 30 0 0
10:03 1018 30.06 847 25.01 18.4 65.1 26 -1.4 29.5 0 0
10:04 1018 30.06 847 25.01 18.4 65.1 28 -0.5 31.1 0 0
10:05 1018 30.06 847 25.01 18.5 65.2 27 -1 30.2 0 0
10:06 1018 30.06 847 25.01 18.5 65.4 26 -1.1 30 0 0
10:07 1018 30.06 847 25.01 18.5 65.4 27 -0.8 30.5 0 0
10:08 1018 30.06 847 25.01 18.6 65.5 26 -1.3 29.7 0 0
10:09 1018 30.06 847 25.01 18.6 65.5 26 -0.9 30.4 0 0
10:10 1018 30.06 847 25.01 18.6 65.4 26 -1.1 30 0 0
10:11 1018 30.06 847 25.01 18.6 65.5 27 -0.7 30.8 0 0
10:12 1018 30.06 847 25.01 18.7 65.7 25 -1.5 29.3 0 0
10:13 1018 30.06 847 25.01 18.6 65.5 27 -0.8 30.6 0 0
10:14 1018 30.06 847 25.01 18.6 65.5 26 -1 30.2 0 0
10:15 1018 30.06 847 25.01 18.7 65.6 26 -1.1 30 0 0
10:16 1018 30.06 847 25.01 18.6 65.4 27 -0.9 30.4 0 0
10:17 1018 30.06 847 25.01 18.6 65.5 27 -0.8 30.6 0 0
10:18 1018 30.06 847 25.01 18.6 65.5 28 -0.1 31.8 0 0
10:19 1018 30.06 847 25.01 18.7 65.7 26 -1 30.2 0 0
10:20 1018 30.06 847 25.01 18.7 65.7 26 -1.1 30 0 0
10:21 1018 30.06 847 25.01 18.6 65.5 26 -1.3 29.7 0 0
10:22 1018 30.06 847 25.01 18.6 65.4 27 -0.7 30.7 0 0
10:23 1018 30.06 847 25.01 18.6 65.6 27 -0.3 31.4 0 0
10:24 1018 30.06 847 25.01 18.7 65.6 27 -0.8 30.6 0 0
10:25 1018 30.06 847 25.01 18.7 65.6 27 -0.6 31 0 0
10:26 1018 30.06 847 25.01 18.7 65.6 27 -0.7 30.7 0 0
10:27 1018 30.06 847 25.01 18.8 65.8 26 -0.8 30.6 0 0
10:28 1018 30.06 847 25.01 18.9 66 26 -0.9 30.3 0 0
10:29 1018 30.06 847 25.01 18.8 65.8 26 -0.9 30.5 0 0
10:30 1018 30.06 847 25.01 18.9 66 26 -0.7 30.7 0 0
10:31 1018 30.06 847 25.01 19.1 66.3 25 -1 30.1 0 0
10:32 1018 30.06 847 25.01 19.1 66.4 25 -1.4 29.5 0 0
10:33 1018 30.06 847 25.01 19 66.2 26 -0.8 30.6 0 0
10:34 1018 30.06 847 25.01 18.9 66.1 26 -0.7 30.8 0 0
10:35 1018 30.06 847 25.01 19 66.1 25 -1.3 29.7 0 0
10:36 1018 30.06 847 25.01 18.8 65.9 26 -1 30.2 0 0
10:37 1018 30.06 847 25.01 18.7 65.7 26 -1.3 29.7 0 0
10:38 1018 30.06 847 25.01 18.7 65.6 26 -1 30.2 0 0
10:39 1018 30.06 847 25.01 18.6 65.5 27 -0.8 30.6 0 0
10:40 1018 30.06 847 25.01 18.7 65.6 26 -1.1 30 0 0
10:41 1018 30.06 847 25.01 18.7 65.7 25 -1.3 29.7 0 0
10:42 1018 30.06 847 25.01 18.6 65.6 26 -1.4 29.6 0 0
10:43 1018 30.06 847 25.01 18.6 65.4 26 -1.3 29.6 0 0
10:44 1017 30.03 847 25.01 18.6 65.4 26 -1.3 29.7 0 0
10:45 1018 30.06 847 25.01 18.6 65.4 26 -1 30.1 0 0
10:46 1018 30.06 847 25.01 18.6 65.4 27 -0.8 30.6 0 0
10:47 1018 30.06 847 25.01 18.5 65.3 26 -1.2 29.8 0 0
10:48 1017 30.03 847 25.01 18.6 65.4 26 -1.1 30 0 0
10:49 1017 30.03 847 25.01 18.7 65.6 26 -1.1 30.1 0 0
10:50 1017 30.03 847 25.01 18.7 65.6 25 -1.4 29.4 0 0
10:51 1017 30.03 847 25.01 18.6 65.4 26 -0.9 30.3 0 0
10:52 1017 30.03 847 25.01 18.5 65.3 26 -1.3 29.7 0 0
10:53 1017 30.03 847 25.01 18.5 65.4 27 -0.8 30.6 0 0
10:54 1017 30.03 847 25.01 18.7 65.6 27 -0.8 30.6 0 0
10:55 1017 30.03 847 25.01 18.8 65.8 26 -0.9 30.4 0 0
10:56 1017 30.03 847 25.01 18.7 65.7 25 -1.4 29.5 0 0
10:57 1017 30.03 847 25.01 18.7 65.7 25 -1.4 29.5 0 0
10:58 1017 30.03 847 25.01 18.7 65.6 26 -1.1 30.1 0 0
10:59 1017 30.03 847 25.01 18.7 65.6 26 -1.1 30.1 0 0
11:00 1017 30.03 847 25.01 18.7 65.7 26 -1.3 29.7 0 0
11:01 1017 30.03 847 25.01 18.8 65.8 26 -1 30.3 0 0
11:02 1017 30.03 847 25.01 18.8 65.8 25 -1.5 29.3 0 0
11:03 1017 30.03 847 25.01 18.9 66 25 -1.2 29.8 0 0
11:04 1017 30.03 847 25.01 18.9 66 26 -0.8 30.5 0 0
11:05 1017 30.03 846 24.98 19 66.1 26 -1.1 30.1 0 0
11:06 1017 30.03 846 24.98 19.1 66.4 26 -0.9 30.3 0 0
11:07 1017 30.03 846 24.98 19.2 66.6 25 -1.2 29.8 0 0
11:08 1017 30.03 846 24.98 19.3 66.7 25 -1.2 29.8 0 0
11:09 1017 30.03 846 24.98 19.2 66.5 26 -0.9 30.4 0 0
11:10 1017 30.03 846 24.98 19.1 66.4 25 -1.3 29.6 0 0
11:11 1017 30.03 846 24.98 19 66.3 25 -1.5 29.4 0 0
11:12 1017 30.03 846 24.98 19 66.1 24 -2.1 28.2 0 0
11:13 1017 30.03 846 24.98 18.9 66.1 26 -0.8 30.6 0 0
11:14 1017 30.03 846 24.98 19.1 66.4 25 -1 30.2 0 0
11:15 1017 30.03 846 24.98 19.3 66.7 24 -1.4 29.5 0 0
11:16 1017 30.03 846 24.98 19.3 66.7 25 -1.1 30 0 0
11:17 1017 30.03 846 24.98 19.3 66.7 25 -0.9 30.4 0 0
11:18 1017 30.03 846 24.98 19.3 66.7 24 -1.5 29.3 0 0
11:19 1017 30.03 846 24.98 19.3 66.7 25 -1.3 29.6 0 0
11:20 1017 30.03 846 24.98 19.2 66.5 27 -0.4 31.3 0 0
11:21 1017 30.03 846 24.98 19.2 66.6 25 -1.2 29.8 0 0
11:22 1017 30.03 846 24.98 19.2 66.6 25 -1.4 29.5 0 0
11:23 1017 30.03 846 24.98 19.2 66.6 24 -1.6 29.1 0 0
11:24 1017 30.03 846 24.98 19.2 66.5 25 -1.4 29.6 0 0
11:25 1017 30.03 846 24.98 19.3 66.7 25 -1.2 29.8 0 0
11:26 1017 30.03 846 24.98 19.2 66.6 26 -0.5 31.1 0 0
11:27 1017 30.03 846 24.98 19.4 66.8 25 -1.2 29.9 0 0
11:28 1017 30.03 846 24.98 19.6 67.2 25 -0.9 30.4 0 0
11:29 1017 30.03 846 24.98 19.6 67.4 25 -0.9 30.5 0 0
11:30 1017 30.03 846 24.98 19.7 67.4 24 -1.5 29.4 0 0
11:31 1017 30.03 846 24.98 19.7 67.4 24 -1.2 29.8 0 0
11:32 1017 30.03 846 24.98 19.7 67.5 25 -0.7 30.7 0 0
11:33 1017 30.03 846 24.98 19.8 67.7 25 -0.8 30.5 0 0
11:34 1017 30.03 846 24.98 19.9 67.7 24 -1.3 29.7 0 0
11:35 1017 30.03 846 24.98 19.8 67.6 25 -0.5 31.1 0 0
11:36 1017 30.03 846 24.98 19.8 67.6 25 -0.8 30.5 0 0
11:37 1017 30.03 846 24.98 19.8 67.6 25 -0.5 31.1 0 0
11:38 1017 30.03 846 24.98 19.9 67.8 23 -1.5 29.3 0 0
11:39 1017 30.03 846 24.98 20 67.9 26 0.1 32.1 0 0
11:40 1017 30.03 846 24.98 20.1 68.2 24 -1.1 30 0 0
11:41 1017 30.03 846 24.98 20.1 68.1 25 -0.2 31.6 0 0
11:42 1017 30.03 846 24.98 20.2 68.3 24 -0.6 30.9 0 0
11:43 1017 30.03 846 24.98 20.1 68.2 25 -0.6 30.9 0 0
11:44 1017 30.03 846 24.98 20.1 68.1 25 -0.6 30.8 0 0
11:45 1017 30.03 846 24.98 20.1 68.3 25 -0.2 31.6 0 0
11:46 1017 30.03 846 24.98 20.1 68.2 25 -0.3 31.5 0 0
11:47 1017 30.03 846 24.98 20 68 25 -0.4 31.3 0 0
11:48 1017 30.03 846 24.98 19.8 67.7 25 -0.4 31.2 0 0
11:49 1017 30.03 846 24.98 19.8 67.6 25 -0.7 30.7 0 0
11:50 1017 30.03 846 24.98 19.9 67.9 25 -0.4 31.2 0 0
11:51 1017 30.03 846 24.98 20.1 68.1 26 0.3 32.5 0 0
11:52 1017 30.03 846 24.98 20.2 68.4 24 -1 30.2 0 0
11:53 1017 30.03 846 24.98 20.4 68.8 25 0 32 0 0
11:54 1017 30.03 846 24.98 20.7 69.3 21 -2.4 27.6 0 0
11:55 1017 30.03 846 24.98 21 69.7 21 -2.2 28 0 0
11:56 1017 30.03 846 24.98 21.1 70 20 -2.3 27.9 0 0
11:57 1016 30 846 24.98 21.3 70.3 21 -1.6 29 0 0
11:58 1016 30 846 24.98 21.5 70.6 20 -2 28.5 0 0
11:59 1016 30 846 24.98 21.6 70.9 20 -2.4 27.7 0 0
12:00 1016 30 846 24.98 21.6 70.9 19 -2.9 26.7 0 0
12:01 1016 30 846 24.98 21.5 70.7 19 -2.6 27.3 0 0
12:02 1016 30 846 24.98 21.6 70.8 19 -2.9 26.8 0 0
12:03 1016 30 846 24.98 21.5 70.7 19 -2.8 27 0 0
12:04 1016 30 846 24.98 21.5 70.6 19 -2.9 26.7 0 0
12:05 1016 30 846 24.98 21.4 70.5 19 -3.1 26.4 0 0
12:06 1016 30 846 24.98 21.4 70.5 19 -2.7 27.2 0 0
12:07 1016 30 845 24.95 21.6 70.8 19 -2.9 26.7 0 0
12:08 1016 30 845 24.95 21.5 70.8 20 -2.4 27.7 0 0
12:09 1016 30 845 24.95 21.6 70.9 19 -3.2 26.3 0 0
12:10 1016 30 845 24.95 21.6 70.8 18 -3.4 25.8 0 0
12:11 1016 30 845 24.95 21.4 70.5 19 -3 26.6 0 0
12:12 1016 30 845 24.95 21.4 70.5 21 -1.8 28.7 0 0
12:13 1016 30 845 24.95 21.6 70.8 20 -2.1 28.2 0 0
12:14 1016 30 845 24.95 21.7 71 19 -3 26.6 0 0
12:15 1016 30 845 24.95 21.7 71.1 18 -3.3 26 0 0
12:16 1016 30 846 24.98 21.6 70.9 18 -3.4 25.9 0 0
12:17 1016 30 845 24.95 21.7 71 18 -3.5 25.6 0 0
12:18 1016 30 845 24.95 21.6 70.9 18 -3.7 25.3 0 0
12:19 1016 30 845 24.95 21.5 70.7 19 -2.9 26.8 0 0
12:20 1016 30 845 24.95 21.5 70.6 19 -2.7 27.2 0 0
12:21 1016 30 845 24.95 21.5 70.7 19 -3.1 26.4 0 0
12:22 1016 30 845 24.95 21.6 70.9 19 -2.8 26.9 0 0
12:23 1016 30 845 24.95 21.8 71.2 19 -3 26.6 0 0
12:24 1016 30 845 24.95 21.7 71.1 18 -3.8 25.1 0 0
12:25 1016 30 845 24.95 21.6 71 20 -2.4 27.7 0 0
12:26 1016 30 845 24.95 21.7 71.1 19 -2.6 27.2 0 0
12:27 1016 30 845 24.95 21.7 71.1 20 -2.4 27.7 0 0
12:28 1016 30 845 24.95 21.9 71.3 19 -2.4 27.6 0 0
12:29 1016 30 845 24.95 22 71.6 18 -3.1 26.4 0 0
12:30 1016 30 845 24.95 21.9 71.4 19 -2.5 27.5 0 0
12:31 1016 30 845 24.95 21.9 71.4 18 -3.1 26.4 0 0
12:32 1016 30 845 24.95 21.9 71.4 19 -2.6 27.3 0 0
12:33 1016 30 845 24.95 21.8 71.3 18 -3.4 25.9 0 0
12:34 1016 30 845 24.95 21.7 71.1 19 -2.7 27.2 0 0
12:35 1016 30 845 24.95 21.7 71 20 -2.2 28 0 0
12:36 1016 30 845 24.95 21.6 70.9 19 -2.7 27.2 0 0
12:37 1016 30 845 24.95 21.6 70.9 19 -2.8 26.9 0 0
12:38 1016 30 845 24.95 21.7 71 19 -3.1 26.4 0 0
12:39 1016 30 845 24.95 21.6 70.8 20 -2.5 27.6 0 0
12:40 1016 30 845 24.95 21.6 70.8 19 -2.7 27.1 0 0
12:41 1016 30 845 24.95 21.6 71 19 -2.8 27 0 0
12:42 1016 30 845 24.95 21.7 71 19 -3.1 26.4 0 0
12:43 1016 30 845 24.95 21.7 71 18 -3.3 26 0 0
12:44 1016 30 845 24.95 21.8 71.2 20 -2.3 27.8 0 0
12:45 1016 30 845 24.95 21.9 71.3 19 -2.6 27.3 0 0
12:46 1016 30 845 24.95 21.9 71.4 19 -2.8 27 0 0
12:47 1016 30 845 24.95 21.9 71.3 19 -2.4 27.6 0 0
12:48 1016 30 845 24.95 21.8 71.2 19 -2.5 27.5 0 0
12:49 1016 30 845 24.95 21.7 71.1 19 -2.8 27 0 0
12:50 1016 30 845 24.95 21.7 71.1 19 -2.6 27.3 0 0
12:51 1016 30 845 24.95 21.8 71.2 20 -2.3 27.8 0 0
12:52 1016 30 845 24.95 21.9 71.5 19 -2.6 27.3 0 0
12:53 1016 30 845 24.95 21.9 71.3 19 -2.8 27 0 0
12:54 1016 30 845 24.95 21.8 71.2 19 -2.6 27.3 0 0
12:55 1016 30 845 24.95 21.7 71.1 19 -2.6 27.2 0 0
12:56 1016 30 845 24.95 21.7 71.1 19 -2.7 27.1 0 0
12:57 1016 30 845 24.95 21.8 71.2 19 -2.4 27.7 0 0
12:58 1016 30 845 24.95 21.9 71.5 18 -3.1 26.4 0 0
12:59 1016 30 845 24.95 21.9 71.5 19 -2.7 27.2 0 0
13:00 1016 30 845 24.95 22 71.5 18 -2.9 26.8 0 0
13:01 1016 30 845 24.95 21.8 71.3 19 -2.6 27.4 0 0
13:02 1016 30 845 24.95 21.8 71.2 18 -3.2 26.3 0 0
13:03 1016 30 845 24.95 21.7 71.1 20 -2.1 28.2 0 0
13:04 1016 30 845 24.95 21.9 71.3 19 -2.9 26.7 0 0
13:05 1016 30 845 24.95 21.9 71.4 18 -3.1 26.4 0 0
13:06 1016 30 845 24.95 21.9 71.4 19 -2.8 27 0 0
13:07 1016 30 845 24.95 21.9 71.4 19 -2.7 27.1 0 0
13:08 1016 30 845 24.95 21.8 71.2 20 -2.2 28.1 0 0
13:09 1016 30 845 24.95 21.5 70.8 19 -2.6 27.3 0 0
13:10 1016 30 845 24.95 21.4 70.6 20 -2.4 27.7 0 0
13:11 1016 30 845 24.95 21.6 71 19 -2.6 27.3 0 0
13:12 1016 30 845 24.95 21.7 71.1 19 -2.8 27 0 0
13:13 1016 30 845 24.95 21.9 71.3 19 -2.6 27.3 0 0
13:14 1016 30 845 24.95 21.9 71.5 19 -2.8 27 0 0
13:15 1016 30 845 24.95 22 71.6 19 -2.3 27.8 0 0
13:16 1016 30 845 24.95 22 71.6 19 -2.7 27.2 0 0
13:17 1016 30 845 24.95 22 71.6 19 -2.3 27.9 0 0
13:18 1016 30 845 24.95 22.1 71.7 18 -2.9 26.7 0 0
13:19 1016 30 845 24.95 22.1 71.8 19 -2.8 27 0 0
13:20 1016 30 845 24.95 22.1 71.8 18 -3 26.6 0 0
13:21 1016 30 845 24.95 22 71.6 19 -2.8 27 0 0
13:22 1016 30 845 24.95 22.1 71.8 18 -3 26.6 0 0
13:23 1016 30 845 24.95 22.3 72.2 18 -2.8 26.9 0 0
13:24 1016 30 845 24.95 22.4 72.3 19 -2.1 28.2 0 0
13:25 1016 30 845 24.95 22.6 72.7 18 -2.6 27.3 0 0
13:26 1016 30 845 24.95 22.6 72.7 18 -2.9 26.8 0 0
13:27 1016 30 845 24.95 22.5 72.5 18 -2.9 26.7 0 0
13:28 1016 30 845 24.95 22.4 72.3 19 -2.2 28 0 0
13:29 1016 30 845 24.95 22.3 72.2 18 -2.6 27.3 0 0
13:30 1016 30 845 24.95 22.4 72.3 18 -2.6 27.3 0 0
13:31 1016 30 845 24.95 22.3 72.1 18 -2.7 27.1 0 0
13:32 1016 30 845 24.95 22.2 72 19 -2.4 27.7 0 0
13:33 1016 30 845 24.95 22.2 72 20 -1.4 29.6 0 0
13:34 1016 30 845 24.95 22.5 72.5 18 -2.6 27.2 0 0
13:35 1016 30 845 24.95 22.6 72.6 18 -2.7 27.2 0 0
13:36 1016 30 845 24.95 22.4 72.3 20 -1.6 29.2 0 0
13:37 1016 30 845 24.95 22.4 72.4 18 -2.9 26.8 0 0
13:38 1016 30 845 24.95 22.4 72.3 19 -2.3 27.8 0 0
13:39 1016 30 845 24.95 22.4 72.2 19 -2.4 27.7 0 0
13:40 1016 30 845 24.95 22.4 72.2 18 -2.7 27.1 0 0
13:41 1016 30 845 24.95 22.3 72.1 19 -2.5 27.5 0 0
13:42 1016 30 845 24.95 22.4 72.4 19 -2.5 27.5 0 0
13:43 1016 30 845 24.95 22.6 72.6 20 -1.4 29.5 0 0
13:44 1016 30 845 24.95 22.7 72.8 19 -2.1 28.2 0 0
13:45 1016 30 845 24.95 22.7 72.9 18 -2.5 27.4 0 0
13:46 1016 30 845 24.95 22.7 72.8 19 -2 28.4 0 0
13:47 1016 30 845 24.95 22.6 72.8 18 -2.9 26.8 0 0
13:48 1016 30 845 24.95 22.6 72.6 18 -2.9 26.7 0 0
13:49 1016 30 845 24.95 22.5 72.5 18 -2.6 27.3 0 0
13:50 1015 29.97 845 24.95 22.6 72.7 17 -3.2 26.2 0 0
13:51 1015 29.97 845 24.95 22.5 72.5 18 -2.5 27.6 0 0
13:52 1015 29.97 845 24.95 22.5 72.6 19 -2.3 27.9 0 0
13:53 1015 29.97 845 24.95 22.6 72.6 18 -2.9 26.7 0 0
13:54 1015 29.97 845 24.95 22.6 72.6 19 -2.4 27.7 0 0
13:55 1015 29.97 845 24.95 22.5 72.6 18 -2.6 27.3 0 0
13:56 1015 29.97 845 24.95 22.5 72.4 19 -2 28.5 0 0
13:57 1015 29.97 845 24.95 22.5 72.6 18 -3 26.7 0 0
13:58 1015 29.97 845 24.95 22.6 72.6 18 -3 26.6 0 0
13:59 1015 29.97 845 24.95 22.5 72.5 19 -2.3 27.9 0 0
14:00 1015 29.97 845 24.95 22.6 72.7 19 -2.3 27.9 0 0
14:01 1015 29.97 844 24.92 22.6 72.8 18 -2.7 27.1 0 0
14:02 1015 29.97 844 24.92 22.6 72.7 18 -2.6 27.3 0 0
14:03 1015 29.97 844 24.92 22.5 72.6 18 -2.4 27.6 0 0
14:04 1015 29.97 844 24.92 22.5 72.5 19 -2.4 27.7 0 0
14:05 1015 29.97 844 24.92 22.4 72.4 18 -2.7 27.1 0 0
14:06 1015 29.97 844 24.92 22.5 72.5 19 -2.3 27.8 0 0
14:07 1015 29.97 844 24.92 22.5 72.5 20 -1.3 29.6 0 0
14:08 1015 29.97 844 24.92 22.6 72.8 20 -1.6 29.2 0 0
14:09 1015 29.97 844 24.92 22.8 73.1 19 -2.1 28.2 0 0
14:10 1015 29.97 844 24.92 23 73.4 18 -2.6 27.3 0 0
14:11 1015 29.97 844 24.92 23 73.4 18 -2.4 27.8 0 0
14:12 1015 29.97 844 24.92 22.7 72.8 19 -1.8 28.7 0 0
14:13 1015 29.97 844 24.92 22.4 72.4 19 -2.1 28.2 0 0
14:14 1015 29.97 844 24.92 22.5 72.4 18 -2.8 26.9 0 0
14:15 1015 29.97 844 24.92 22.4 72.4 19 -2.4 27.6 0 0
14:16 1015 29.97 844 24.92 22.5 72.5 18 -2.8 27 0 0
14:17 1015 29.97 844 24.92 22.8 73 20 -1.3 29.7 0 0
14:18 1015 29.97 844 24.92 23 73.4 20 -1.2 29.9 0 0
14:19 1015 29.97 844 24.92 23.2 73.8 18 -2.3 27.8 0 0
14:20 1015 29.97 844 24.92 23.1 73.6 18 -2.5 27.5 0 0
14:21 1015 29.97 844 24.92 22.8 73 18 -2.8 27 0 0
14:22 1015 29.97 844 24.92 22.7 72.9 19 -2 28.5 0 0
14:23 1015 29.97 844 24.92 22.9 73.1 19 -2.1 28.3 0 0
14:24 1015 29.97 844 24.92 22.8 73 17 -3.3 26 0 0
14:25 1015 29.97 844 24.92 22.7 72.8 17 -3.3 26 0 0
14:26 1015 29.97 844 24.92 22.7 72.8 17 -3.5 25.7 0 0
14:27 1015 29.97 844 24.92 22.6 72.7 17 -3.2 26.3 0 0
14:28 1015 29.97 844 24.92 22.7 72.8 18 -2.7 27.2 0 0
14:29 1015 29.97 844 24.92 22.7 72.9 19 -1.5 29.2 0 0
14:30 1015 29.97 844 24.92 22.9 73.3 18 -2.2 28 0 0
14:31 1015 29.97 844 24.92 23.1 73.6 17 -2.8 26.9 0 0
14:32 1015 29.97 844 24.92 23.1 73.5 18 -2.5 27.5 0 0
14:33 1015 29.97 844 24.92 22.9 73.1 17 -3.1 26.5 0 0
14:34 1015 29.97 844 24.92 22.4 72.2 18 -2.8 27 0 0
14:35 1015 29.97 844 24.92 22 71.6 19 -2.6 27.4 0 0
14:36 1015 29.97 844 24.92 22.2 71.9 18 -3.4 25.9 0 0
14:37 1015 29.97 844 24.92 22.5 72.4 18 -2.6 27.3 0 0
14:38 1015 29.97 844 24.92 22.7 72.9 18 -2.7 27.2 0 0
14:39 1015 29.97 844 24.92 23.1 73.5 17 -3.5 25.8 0 0
14:40 1015 29.97 844 24.92 23.2 73.7 17 -3.1 26.4 0 0
14:41 1015 29.97 844 24.92 23.3 74 16 -3.6 25.4 0 0
14:42 1015 29.97 844 24.92 23.3 74 15 -4.2 24.5 0 0
14:43 1015 29.97 844 24.92 23.4 74 15 -4.4 24.2 0 0
14:44 1015 29.97 844 24.92 23.3 73.9 16 -3.8 25.2 0 0
14:45 1015 29.97 844 24.92 23.3 73.9 15 -4.3 24.3 0 0
14:46 1015 29.97 844 24.92 23.3 73.9 16 -3.5 25.7 0 0
14:47 1015 29.97 844 24.92 23.2 73.8 16 -4 24.9 0 0
14:48 1015 29.97 844 24.92 23.2 73.8 16 -3.4 25.9 0 0
14:49 1015 29.97 844 24.92 23.2 73.8 17 -2.8 26.9 0 0
14:50 1015 29.97 844 24.92 23.3 73.9 17 -2.9 26.7 0 0
14:51 1015 29.97 844 24.92 23.2 73.8 16 -3.7 25.3 0 0
14:52 1015 29.97 844 24.92 23.1 73.7 17 -2.7 27.1 0 0
14:53 1015 29.97 844 24.92 23.2 73.7 16 -3.6 25.6 0 0
14:54 1015 29.97 844 24.92 23.1 73.5 15 -4.4 24 0 0
14:55 1014 29.94 844 24.92 23 73.4 18 -2.6 27.4 0 0
14:56 1014 29.94 844 24.92 23 73.5 17 -3.1 26.4 0 0
14:57 1014 29.94 844 24.92 23.1 73.6 18 -2.5 27.5 0 0
14:58 1014 29.94 844 24.92 23.3 73.9 17 -2.9 26.9 0 0
14:59 1014 29.94 844 24.92 23.4 74.1 17 -3 26.6 0 0
15:00 1014 29.94 844 24.92 23.5 74.2 16 -3.3 26.1 0 0
15:01 1014 29.94 844 24.92 23.3 74 16 -3.5 25.8 0 0
15:02 1014 29.94 844 24.92 23.5 74.3 16 -3.8 25.1 0 0
15:03 1014 29.94 843 24.89 23.5 74.2 17 -3.2 26.3 0 0
15:04 1014 29.94 844 24.92 23.4 74.1 16 -3.3 26.1 0 0
15:05 1014 29.94 844 24.92 23.5 74.2 16 -3.2 26.3 0 0
15:06 1014 29.94 844 24.92 23.3 74 17 -3.1 26.4 0 0
15:07 1014 29.94 843 24.89 23.1 73.6 17 -2.7 27.1 0 0
15:08 1014 29.94 843 24.89 23.2 73.7 17 -2.7 27.1 0 0
15:09 1014 29.94 843 24.89 23.3 73.9 18 -2.5 27.6 0 0
15:10 1014 29.94 843 24.89 23.3 74 16 -4 24.9 0 0
15:11 1014 29.94 843 24.89 23.4 74.1 16 -4 24.9 0 0
15:12 1014 29.94 843 24.89 23.3 74 15 -4.8 23.3 0 0
15:13 1014 29.94 843 24.89 23.2 73.8 16 -4.1 24.6 0 0
15:14 1014 29.94 843 24.89 23.1 73.6 16 -3.8 25.1 0 0
15:15 1014 29.94 843 24.89 23.1 73.5 15 -4.9 23.2 0 0
15:16 1014 29.94 843 24.89 23.1 73.5 16 -3.9 25 0 0
15:17 1014 29.94 843 24.89 23.1 73.6 16 -4.1 24.5 0 0
15:18 1014 29.94 843 24.89 23.1 73.5 16 -3.7 25.4 0 0
15:19 1014 29.94 843 24.89 23.1 73.6 15 -5 23 0 0
15:20 1014 29.94 843 24.89 23.2 73.8 16 -4 24.9 0 0
15:21 1014 29.94 843 24.89 23.3 73.9 15 -4.4 24.1 0 0
15:22 1014 29.94 843 24.89 23.3 73.9 15 -4.4 24.1 0 0
15:23 1014 29.94 843 24.89 23.3 73.9 16 -4 24.8 0 0
15:24 1014 29.94 843 24.89 23.3 74 16 -3.7 25.4 0 0
15:25 1014 29.94 843 24.89 23.3 74 15 -4.9 23.2 0 0
15:26 1014 29.94 843 24.89 23.3 74 15 -5 23 0 0
15:27 1014 29.94 843 24.89 23.2 73.8 16 -3.6 25.5 0 0
15:28 1014 29.94 843 24.89 23.3 73.9 14 -5.2 22.7 0 0
15:29 1014 29.94 843 24.89 23.2 73.7 14 -5.4 22.4 0 0
15:30 1014 29.94 843 24.89 23.1 73.5 15 -4.7 23.5 0 0
15:31 1014 29.94 843 24.89 23.1 73.5 16 -4.1 24.6 0 0
15:32 1014 29.94 843 24.89 23.2 73.8 14 -5.2 22.7 0 0
15:33 1014 29.94 843 24.89 23.1 73.6 15 -4.4 24.1 0 0
15:34 1014 29.94 843 24.89 23.1 73.6 16 -4 24.7 0 0
15:35 1014 29.94 843 24.89 23.1 73.6 14 -5.2 22.6 0 0
15:36 1014 29.94 843 24.89 23.1 73.6 15 -4.7 23.6 0 0
15:37 1014 29.94 843 24.89 23.1 73.6 16 -4.3 24.3 0 0
15:38 1014 29.94 843 24.89 23.2 73.8 16 -4.2 24.4 0 0
15:39 1014 29.94 843 24.89 23.2 73.8 15 -4.6 23.7 0 0
15:40 1014 29.94 843 24.89 23.3 73.9 14 -5.6 21.9 0 0
15:41 1014 29.94 843 24.89 23.2 73.8 15 -4.8 23.4 0 0
15:42 1014 29.94 843 24.89 23.2 73.8 15 -5 23 0 0
15:43 1014 29.94 843 24.89 23.2 73.8 15 -4.9 23.1 0 0
15:44 1014 29.94 843 24.89 23.3 73.9 16 -3.6 25.6 0 0
15:45 1014 29.94 843 24.89 23.3 74 16 -3.3 26 0 0
15:46 1014 29.94 843 24.89 23.2 73.8 14 -5.2 22.6 0 0
15:47 1014 29.94 843 24.89 23.1 73.6 16 -4.2 24.4 0 0
15:48 1014 29.94 843 24.89 23.1 73.5 15 -5.2 22.6 0 0
15:49 1014 29.94 843 24.89 23.1 73.6 15 -5 23 0 0
15:50 1014 29.94 843 24.89 23.2 73.7 16 -3.5 25.7 0 0
15:51 1014 29.94 843 24.89 23.4 74 15 -4.8 23.4 0 0
15:52 1014 29.94 843 24.89 23.3 74 15 -4.9 23.2 0 0
15:53 1014 29.94 843 24.89 23.1 73.7 16 -4.3 24.3 0 0
15:54 1014 29.94 843 24.89 23.1 73.5 14 -6.1 21.1 0 0
15:55 1014 29.94 843 24.89 23.1 73.6 14 -5.5 22.2 0 0
15:56 1014 29.94 843 24.89 23.2 73.8 15 -5.1 22.9 0 0
15:57 1014 29.94 843 24.89 23.3 73.9 15 -5 22.9 0 0
15:58 1014 29.94 843 24.89 23.3 73.9 15 -4.9 23.1 0 0
15:59 1014 29.94 843 24.89 23.3 73.9 15 -4.4 24.2 0 0
16:00 1014 29.94 843 24.89 23.4 74.1 15 -4.9 23.2 0 0
16:01 1014 29.94 843 24.89 23.4 74.2 14 -5 22.9 0 0
16:02 1014 29.94 843 24.89 23.5 74.3 15 -4.2 24.4 0 0
16:03 1014 29.94 843 24.89 23.6 74.4 14 -5.2 22.6 0 0
16:04 1014 29.94 843 24.89 23.6 74.5 14 -5.5 22.1 0 0
16:05 1014 29.94 843 24.89 23.5 74.4 14 -5.5 22.1 0 0
16:06 1014 29.94 843 24.89 23.5 74.3 13 -6.3 20.6 0 0
16:07 1014 29.94 843 24.89 23.4 74.1 14 -5.8 21.6 0 0
16:08 1014 29.94 843 24.89 23.4 74.1 13 -5.9 21.4 0 0
16:09 1014 29.94 843 24.89 23.3 74 14 -5.8 21.5 0 0
16:10 1014 29.94 843 24.89 23.3 74 14 -5.7 21.7 0 0
16:11 1014 29.94 843 24.89 23.3 73.9 14 -5.8 21.6 0 0
16:12 1014 29.94 843 24.89 23.3 73.9 14 -5.7 21.7 0 0
16:13 1014 29.94 843 24.89 23.3 73.9 14 -5.5 22.1 0 0
16:14 1014 29.94 843 24.89 23.3 74 13 -6 21.1 0 0
16:15 1014 29.94 843 24.89 23.3 74 13 -6.1 21 0 0
16:16 1014 29.94 843 24.89 23.3 73.9 13 -6.3 20.6 0 0
16:17 1014 29.94 843 24.89 23.3 73.9 13 -6.4 20.5 0 0
16:18 1014 29.94 843 24.89 23.2 73.8 13 -6.1 21.1 0 0
16:19 1014 29.94 843 24.89 23.2 73.7 13 -6.8 19.8 0 0
16:20 1014 29.94 843 24.89 23 73.5 13 -6.5 20.3 0 0
16:21 1014 29.94 843 24.89 23 73.5 14 -5.9 21.4 0 0
16:22 1014 29.94 843 24.89 23.1 73.5 14 -5.8 21.5 0 0
16:23 1014 29.94 843 24.89 23.1 73.7 14 -5.8 21.5 0 0
16:24 1014 29.94 843 24.89 23.2 73.7 13 -6.2 20.9 0 0
16:25 1014 29.94 843 24.89 23.1 73.6 14 -6.1 21 0 0
16:26 1014 29.94 843 24.89 23.1 73.6 13 -7 19.4 0 0
16:27 1014 29.94 843 24.89 23.1 73.6 13 -6.4 20.5 0 0
16:28 1014 29.94 843 24.89 23.1 73.7 13 -7 19.4 0 0
16:29 1014 29.94 843 24.89 23.1 73.6 13 -6.8 19.7 0 0
16:30 1014 29.94 843 24.89 23.1 73.6 13 -6.3 20.7 0 0
16:31 1014 29.94 843 24.89 23.1 73.7 13 -6.2 20.9 0 0
16:32 1014 29.94 843 24.89 23.2 73.8 13 -7.1 19.3 0 0
16:33 1014 29.94 843 24.89 23.1 73.6 13 -7.1 19.2 0 0
16:34 1014 29.94 843 24.89 23.1 73.6 13 -7 19.5 0 0
16:35 1014 29.94 843 24.89 23 73.5 13 -6.4 20.5 0 0
16:36 1014 29.94 843 24.89 23 73.4 13 -6.9 19.6 0 0
16:37 1014 29.94 843 24.89 23 73.4 13 -7.1 19.3 0 0
16:38 1014 29.94 843 24.89 22.9 73.3 13 -6.8 19.8 0 0
16:39 1014 29.94 843 24.89 22.9 73.3 14 -6.1 21 0 0
16:40 1014 29.94 843 24.89 22.9 73.2 13 -6.6 20.2 0 0
16:41 1014 29.94 843 24.89 22.9 73.2 13 -6.7 20 0 0
16:42 1014 29.94 843 24.89 22.9 73.2 13 -6.9 19.6 0 0
16:43 1014 29.94 843 24.89 22.9 73.2 13 -6.4 20.5 0 0
16:44 1014 29.94 843 24.89 22.9 73.2 14 -5.8 21.6 0 0
16:45 1014 29.94 843 24.89 22.9 73.2 14 -6 21.2 0 0
16:46 1014 29.94 843 24.89 23 73.4 13 -6.6 20.1 0 0
16:47 1014 29.94 843 24.89 22.9 73.2 13 -6.7 19.9 0 0
16:48 1014 29.94 843 24.89 22.9 73.2 12 -7.4 18.7 0 0
16:49 1014 29.94 843 24.89 22.8 73.1 13 -7.2 19.1 0 0
16:50 1014 29.94 843 24.89 22.7 72.9 13 -6.9 19.5 0 0
16:51 1014 29.94 843 24.89 22.7 72.9 13 -7.3 18.8 0 0
16:52 1014 29.94 843 24.89 22.7 72.8 13 -7.2 19.1 0 0
16:53 1014 29.94 843 24.89 22.7 72.8 13 -6.6 20.1 0 0
16:54 1014 29.94 843 24.89 22.7 72.8 12 -7.7 18.1 0 0
16:55 1014 29.94 843 24.89 22.7 72.9 12 -7.6 18.3 0 0
16:56 1014 29.94 843 24.89 22.7 72.9 13 -7.4 18.6 0 0
16:57 1014 29.94 843 24.89 22.7 72.9 12 -8 17.6 0 0
16:58 1014 29.94 843 24.89 22.7 72.8 12 -7.5 18.4 0 0
16:59 1014 29.94 843 24.89 22.6 72.7 13 -7.4 18.7 0 0
17:00 1014 29.94 843 24.89 22.6 72.6 13 -7.1 19.2 0 0
17:01 1014 29.94 843 24.89 22.6 72.6 13 -7.4 18.7 0 0
17:02 1014 29.94 843 24.89 22.6 72.7 13 -7 19.3 0 0
17:03 1014 29.94 843 24.89 22.6 72.7 13 -7 19.3 0 0
17:04 1014 29.94 843 24.89 22.6 72.6 13 -7 19.4 0 0
17:05 1014 29.94 843 24.89 22.6 72.6 13 -6.9 19.6 0 0
17:06 1014 29.94 843 24.89 22.6 72.6 13 -6.8 19.8 0 0
17:07 1014 29.94 843 24.89 22.6 72.6 13 -6.8 19.7 0 0
17:08 1014 29.94 843 24.89 22.6 72.6 13 -7 19.4 0 0
17:09 1014 29.94 843 24.89 22.6 72.6 13 -7.3 18.9 0 0
17:10 1014 29.94 843 24.89 22.6 72.6 13 -7.1 19.2 0 0
17:11 1014 29.94 843 24.89 22.6 72.6 13 -7.5 18.4 0 0
17:12 1014 29.94 843 24.89 22.6 72.7 13 -7.1 19.3 0 0
17:13 1014 29.94 843 24.89 22.6 72.6 13 -7.2 19.1 0 0
17:14 1014 29.94 843 24.89 22.6 72.6 13 -7.5 18.5 0 0
17:15 1014 29.94 843 24.89 22.6 72.6 13 -7.1 19.2 0 0
17:16 1014 29.94 843 24.89 22.5 72.6 12 -7.8 18 0 0
17:17 1014 29.94 843 24.89 22.5 72.5 12 -7.9 17.7 0 0
17:18 1014 29.94 843 24.89 22.4 72.4 13 -7.2 19 0 0
17:19 1014 29.94 843 24.89 22.4 72.3 13 -7.2 19 0 0
17:20 1014 29.94 843 24.89 22.4 72.3 13 -7.2 19.1 0 0
17:21 1014 29.94 843 24.89 22.3 72.2 13 -7.3 18.9 0 0
17:22 1014 29.94 843 24.89 22.3 72.2 13 -7.1 19.3 0 0
17:23 1014 29.94 843 24.89 22.3 72.1 13 -7.2 19 0 0
17:24 1014 29.94 843 24.89 22.3 72.1 12 -8 17.6 0 0
17:25 1014 29.94 843 24.89 22.3 72.1 12 -8 17.5 0 0
17:26 1014 29.94 843 24.89 22.3 72.1 13 -7.2 19 0 0
17:27 1014 29.94 843 24.89 22.3 72.2 13 -7.4 18.7 0 0
17:28 1014 29.94 843 24.89 22.3 72.1 13 -7.7 18.2 0 0
17:29 1014 29.94 843 24.89 22.3 72.1 13 -7.4 18.7 0 0
17:30 1014 29.94 843 24.89 22.2 72 12 -8.5 16.8 0 0
17:31 1014 29.94 843 24.89 22.3 72.1 12 -8.3 17 0 0
17:32 1014 29.94 843 24.89 22.2 72 12 -8.7 16.4 0 0
17:33 1014 29.94 843 24.89 22.2 72 11 -9 15.7 0 0
17:34 1014 29.94 843 24.89 22.2 72 12 -8.9 16.1 0 0
17:35 1014 29.94 843 24.89 22.1 71.8 12 -8.4 16.9 0 0
17:36 1014 29.94 843 24.89 22.1 71.7 12 -8.4 16.9 0 0
17:37 1013 29.91 843 24.89 22.1 71.7 12 -8.5 16.7 0 0
17:38 1014 29.94 843 24.89 22 71.6 12 -8.2 17.3 0 0
17:39 1014 29.94 843 24.89 22 71.5 13 -7.9 17.7 0 0
17:40 1014 29.94 843 24.89 21.9 71.4 13 -8 17.6 0 0
17:41 1014 29.94 843 24.89 21.9 71.4 12 -8.3 17.1 0 0
17:42 1014 29.94 843 24.89 21.9 71.4 12 -8.2 17.2 0 0
17:43 1014 29.94 843 24.89 21.8 71.3 12 -8.7 16.3 0 0
17:44 1014 29.94 843 24.89 21.8 71.3 13 -8 17.5 0 0
17:45 1014 29.94 843 24.89 21.8 71.2 12 -9.1 15.5 0 0
17:46 1014 29.94 843 24.89 21.8 71.2 12 -8.8 16.1 0 0
17:47 1014 29.94 843 24.89 21.7 71.1 12 -8.7 16.3 0 0
17:48 1014 29.94 843 24.89 21.7 71 12 -8.9 15.9 0 0
17:49 1014 29.94 843 24.89 21.7 71 11 -9.7 14.5 0 0
17:50 1014 29.94 843 24.89 21.7 71.1 12 -8.9 16.1 0 0
17:51 1014 29.94 843 24.89 21.7 71 12 -8.8 16.1 0 0
17:52 1014 29.94 843 24.89 21.6 70.9 12 -8.6 16.5 0 0
17:53 1014 29.94 843 24.89 21.5 70.8 11 -9.7 14.5 0 0
17:54 1014 29.94 843 24.89 21.5 70.7 12 -9.5 14.9 0 0
17:55 1014 29.94 843 24.89 21.5 70.8 12 -9.5 15 0 0
17:56 1014 29.94 843 24.89 21.5 70.7 11 -9.6 14.7 0 0
17:57 1014 29.94 843 24.89 21.5 70.6 11 -9.6 14.7 0 0
17:58 1014 29.94 843 24.89 21.4 70.6 12 -9.4 15.1 0 0
17:59 1014 29.94 843 24.89 21.4 70.4 11 -9.8 14.4 0 0
18:00 1014 29.94 843 24.89 21.4 70.5 11 -9.7 14.6 0 0
18:01 1014 29.94 843 24.89 21.4 70.6 11 -10.3 13.5 0 0
18:02 1014 29.94 843 24.89 21.5 70.6 12 -9.2 15.4 0 0
18:03 1014 29.94 843 24.89 21.4 70.5 11 -10.1 13.9 0 0
18:04 1014 29.94 843 24.89 21.4 70.5 12 -8.9 15.9 0 0
18:05 1014 29.94 843 24.89 21.3 70.3 11 -9.9 14.2 0 0
18:06 1014 29.94 843 24.89 21.3 70.4 11 -9.7 14.5 0 0
18:07 1014 29.94 843 24.89 21.3 70.3 11 -10.3 13.4 0 0
18:08 1014 29.94 843 24.89 21.4 70.4 11 -9.9 14.1 0 0
18:09 1014 29.94 843 24.89 21.4 70.4 11 -9.7 14.5 0 0
18:10 1014 29.94 843 24.89 21.3 70.3 11 -9.7 14.5 0 0
18:11 1014 29.94 843 24.89 21.2 70.1 12 -9.7 14.6 0 0
18:12 1014 29.94 843 24.89 21.1 70 11 -10.1 13.8 0 0
18:13 1014 29.94 843 24.89 21.1 70 12 -9.8 14.3 0 0
18:14 1014 29.94 843 24.89 21 69.9 12 -9.4 15.1 0 0
18:15 1014 29.94 843 24.89 21 69.7 11 -10 14 0 0
18:16 1014 29.94 843 24.89 21 69.7 12 -9.2 15.4 0 0
18:17 1014 29.94 843 24.89 20.8 69.5 12 -10 13.9 0 0
18:18 1014 29.94 843 24.89 20.8 69.4 12 -10 13.9 0 0
18:19 1014 29.94 843 24.89 20.8 69.4 12 -9.9 14.3 0 0
18:20 1014 29.94 843 24.89 20.7 69.2 12 -9.3 15.3 0 0
18:21 1014 29.94 843 24.89 20.6 69.1 12 -10 14 0 0
18:22 1014 29.94 843 24.89 20.6 69 12 -9.5 15 0 0
18:23 1014 29.94 843 24.89 20.5 68.9 13 -9.2 15.5 0 0
18:24 1014 29.94 843 24.89 20.3 68.5 13 -9 15.7 0 0
18:25 1014 29.94 843 24.89 20.2 68.3 13 -8.6 16.6 0 0
18:26 1014 29.94 843 24.89 20 67.9 12 -9.8 14.4 0 0
18:27 1014 29.94 843 24.89 19.9 67.8 13 -9.5 15 0 0
18:28 1014 29.94 843 24.89 19.9 67.8 13 -9.6 14.8 0 0
18:29 1014 29.94 843 24.89 19.8 67.6 13 -9.6 14.8 0 0
18:30 1014 29.94 843 24.89 19.7 67.4 13 -9.4 15 0 0
18:31 1014 29.94 843 24.89 19.6 67.2 13 -9.1 15.7 0 0
18:32 1014 29.94 843 24.89 19.5 67.1 14 -8.8 16.1 0 0
18:33 1014 29.94 843 24.89 19.4 66.8 14 -8.4 16.8 0 0
18:34 1014 29.94 843 24.89 19.1 66.4 15 -8.3 17.1 0 0
18:35 1014 29.94 843 24.89 18.9 66 16 -7.6 18.4 0 0
18:36 1014 29.94 843 24.89 18.7 65.6 15 -8.3 17.1 0 0
18:37 1014 29.94 843 24.89 18.6 65.4 16 -7.9 17.8 0 0
18:38 1014 29.94 843 24.89 18.5 65.3 16 -8 17.7 0 0
18:39 1014 29.94 843 24.89 18.5 65.3 16 -7.9 17.7 0 0
18:40 1014 29.94 843 24.89 18.5 65.2 16 -8 17.7 0 0
18:41 1014 29.94 843 24.89 18.3 65 16 -7.5 18.6 0 0
18:42 1014 29.94 843 24.89 18.2 64.7 16 -7.6 18.4 0 0
18:43 1014 29.94 843 24.89 18 64.5 17 -7.4 18.7 0 0
18:44 1014 29.94 843 24.89 17.9 64.2 17 -7.1 19.1 0 0
18:45 1014 29.94 843 24.89 17.7 63.8 18 -7 19.3 0 0
18:46 1014 29.94 843 24.89 17.4 63.4 18 -7 19.4 0 0
18:47 1014 29.94 843 24.89 17.2 63 19 -6.9 19.7 0 0
18:48 1014 29.94 843 24.89 17 62.6 19 -6.7 19.9 0 0
18:49 1014 29.94 843 24.89 16.8 62.3 19 -6.6 20.2 0 0
18:50 1014 29.94 843 24.89 16.7 62 20 -6.5 20.3 0 0
18:51 1014 29.94 843 24.89 16.5 61.7 20 -6.5 20.3 0 0
18:52 1014 29.94 843 24.89 16.4 61.5 20 -6.4 20.5 0 0
18:53 1014 29.94 843 24.89 16.3 61.3 21 -6.2 20.9 0 0
18:54 1014 29.94 843 24.89 16.1 61 21 -6.2 20.9 0 0
18:55 1014 29.94 843 24.89 16 60.8 21 -6.1 21 0 0
18:56 1014 29.94 843 24.89 15.9 60.6 21 -6.1 21.1 0 0
18:57 1014 29.94 843 24.89 15.8 60.4 22 -6.1 21.1 0 0
18:58 1014 29.94 843 24.89 15.7 60.2 22 -5.9 21.4 0 0
18:59 1014 29.94 843 24.89 15.5 60 22 -6.1 21.1 0 0
19:00 1014 29.94 843 24.89 15.4 59.8 22 -6.2 20.8 0 0
19:01 1014 29.94 843 24.89 15.4 59.6 22 -6.4 20.5 0 0
19:02 1014 29.94 843 24.89 15.3 59.6 22 -6.5 20.3 0 0
19:03 1014 29.94 843 24.89 15.4 59.6 21 -6.6 20.2 0 0
19:04 1014 29.94 843 24.89 15.4 59.7 21 -6.6 20.2 0 0
19:05 1014 29.94 843 24.89 15.4 59.7 22 -6.3 20.7 0 0
19:06 1014 29.94 843 24.89 15.4 59.7 23 -5.8 21.5 0 0
19:07 1014 29.94 843 24.89 15.2 59.4 22 -6.4 20.5 0 0
19:08 1014 29.94 843 24.89 14.9 58.7 22 -6.4 20.4 0 0
19:09 1014 29.94 843 24.89 14.6 58.2 22 -6.6 20.1 0 0
19:10 1014 29.94 843 24.89 14.5 58.1 23 -6.5 20.2 0 0
19:11 1014 29.94 843 24.89 14.4 57.8 22 -6.9 19.5 0 0
19:12 1014 29.94 843 24.89 14.3 57.7 22 -6.9 19.5 0 0
19:13 1014 29.94 843 24.89 14.2 57.6 22 -7.2 19.1 0 0
19:14 1014 29.94 843 24.89 14.3 57.7 22 -7.2 19 0 0
19:15 1014 29.94 843 24.89 14.4 57.9 22 -7.1 19.1 0 0
19:16 1014 29.94 843 24.89 14.6 58.2 21 -7.3 18.9 0 0
19:17 1014 29.94 843 24.89 14.7 58.5 21 -7.2 19 0 0
19:18 1014 29.94 843 24.89 14.8 58.6 22 -7 19.5 0 0
19:19 1014 29.94 843 24.89 14.8 58.6 22 -6.8 19.7 0 0
19:20 1014 29.94 843 24.89 14.8 58.7 22 -6.9 19.6 0 0
19:21 1014 29.94 843 24.89 14.9 58.7 21 -7.1 19.3 0 0
19:22 1014 29.94 843 24.89 14.9 58.9 21 -7.3 18.8 0 0
19:23 1014 29.94 843 24.89 15 59.1 21 -7.3 18.9 0 0
19:24 1014 29.94 843 24.89 15 59.1 21 -6.8 19.8 0 0
19:25 1014 29.94 843 24.89 14.8 58.7 22 -6.9 19.6 0 0
19:26 1014 29.94 843 24.89 14.7 58.5 21 -7 19.3 0 0
19:27 1014 29.94 843 24.89 14.6 58.3 21 -7.3 18.9 0 0
19:28 1014 29.94 843 24.89 14.6 58.3 21 -7.3 18.8 0 0
19:29 1014 29.94 843 24.89 14.6 58.3 21 -7.1 19.1 0 0
19:30 1014 29.94 843 24.89 14.4 58 22 -6.9 19.6 0 0
19:31 1014 29.94 843 24.89 14.3 57.7 23 -6.6 20.1 0 0
19:32 1014 29.94 843 24.89 14.2 57.5 23 -6.6 20.2 0 0
19:33 1014 29.94 843 24.89 14.1 57.4 23 -6.4 20.4 0 0
19:34 1014 29.94 843 24.89 14 57.2 23 -6.5 20.2 0 0
19:35 1014 29.94 843 24.89 14.1 57.3 23 -6.7 19.9 0 0
19:36 1014 29.94 843 24.89 14.1 57.3 23 -6.8 19.7 0 0
19:37 1014 29.94 843 24.89 14 57.3 23 -6.7 19.9 0 0
19:38 1014 29.94 843 24.89 13.9 57 24 -6.5 20.3 0 0
19:39 1014 29.94 843 24.89 13.6 56.5 25 -6.2 20.8 0 0
19:40 1014 29.94 843 24.89 13.3 56 25 -6.5 20.3 0 0
19:41 1014 29.94 843 24.89 13.2 55.7 25 -6.4 20.5 0 0
19:42 1014 29.94 843 24.89 13.1 55.6 24 -6.9 19.7 0 0
19:43 1014 29.94 843 24.89 13.2 55.7 24 -7.1 19.3 0 0
19:44 1014 29.94 843 24.89 13.3 56 25 -6.2 20.8 0 0
19:45 1014 29.94 843 24.89 13.2 55.7 25 -6.4 20.5 0 0
19:46 1014 29.94 843 24.89 13 55.4 25 -6.6 20 0 0
19:47 1014 29.94 843 24.89 13 55.5 24 -6.9 19.6 0 0
19:48 1014 29.94 843 24.89 13.2 55.8 24 -7 19.4 0 0
19:49 1014 29.94 843 24.89 13.4 56.2 23 -7.3 18.8 0 0
19:50 1014 29.94 843 24.89 13.7 56.6 23 -7.2 19.1 0 0
19:51 1014 29.94 843 24.89 13.9 57 23 -6.8 19.7 0 0
19:52 1014 29.94 843 24.89 13.8 56.8 24 -6.4 20.6 0 0
19:53 1014 29.94 843 24.89 13.5 56.4 25 -6.3 20.6 0 0
19:54 1014 29.94 843 24.89 13.3 55.9 25 -6.3 20.6 0 0
19:55 1014 29.94 843 24.89 13.2 55.7 25 -6.4 20.4 0 0
19:56 1014 29.94 843 24.89 13.1 55.5 26 -6.1 21 0 0
19:57 1014 29.94 843 24.89 12.9 55.1 26 -6.2 20.9 0 0
19:58 1014 29.94 843 24.89 12.6 54.7 27 -6 21.2 0 0
19:59 1014 29.94 843 24.89 12.3 54.2 26 -6.4 20.4 0 0
20:00 1014 29.94 843 24.89 12.3 54.1 26 -6.5 20.3 0 0
20:01 1014 29.94 843 24.89 12.3 54.2 27 -6.3 20.6 0 0
20:02 1014 29.94 843 24.89 12.3 54.2 27 -6.2 20.8 0 0
20:03 1014 29.94 843 24.89 12.3 54.1 26 -6.5 20.4 0 0
20:04 1014 29.94 843 24.89 12.3 54.1 27 -6.1 21 0 0
20:05 1014 29.94 843 24.89 12.3 54.1 27 -6.3 20.6 0 0
20:06 1014 29.94 843 24.89 12.4 54.2 27 -6.2 20.8 0 0
20:07 1014 29.94 843 24.89 12.4 54.3 27 -6 21.2 0 0
20:08 1014 29.94 843 24.89 12.3 54.1 27 -5.9 21.3 0 0
20:09 1014 29.94 843 24.89 12.1 53.8 28 -5.8 21.6 0 0
20:10 1014 29.94 843 24.89 11.9 53.4 29 -5.6 21.9 0 0
20:11 1014 29.94 844 24.92 11.6 52.9 30 -5.4 22.3 0 0
20:12 1014 29.94 844 24.92 11.1 52 31 -5.2 22.7 0 0
20:13 1014 29.94 844 24.92 10.1 50.1 33 -5.5 22.1 0 0
20:14 1014 29.94 844 24.92 8.7 47.6 37 -5.3 22.5 0 0
20:15 1014 29.94 844 24.92 8.1 46.6 38 -5.3 22.4 0 0
20:16 1014 29.94 844 24.92 8.1 46.5 38 -5.4 22.3 0 0
20:17 1014 29.94 844 24.92 7.8 46.1 39 -5.2 22.6 0 0
20:18 1015 29.97 844 24.92 7.2 44.9 41 -5.2 22.6 0 0
20:19 1015 29.97 844 24.92 6.8 44.3 41 -5.5 22 0 0
20:20 1015 29.97 844 24.92 7.1 44.7 39 -6 21.2 0 0
20:21 1015 29.97 844 24.92 7.6 45.7 36 -6.4 20.4 0 0
20:22 1015 29.97 844 24.92 8.3 47 33 -7.2 19.1 0 0
20:23 1015 29.97 844 24.92 9.1 48.4 31 -7.1 19.1 0 0
20:24 1015 29.97 844 24.92 9.8 49.7 29 -7.4 18.7 0 0
20:25 1015 29.97 844 24.92 10.4 50.7 29 -7.1 19.3 0 0
20:26 1015 29.97 844 24.92 10.9 51.5 28 -6.9 19.6 0 0
20:27 1015 29.97 844 24.92 11.2 52.1 27 -7 19.4 0 0
20:28 1015 29.97 844 24.92 11.4 52.5 27 -6.8 19.8 0 0
20:29 1015 29.97 844 24.92 11.6 52.8 28 -6.5 20.3 0 0
20:30 1015 29.97 844 24.92 11.6 52.9 28 -6.4 20.5 0 0
20:31 1015 29.97 844 24.92 11.4 52.5 29 -6.1 21 0 0
20:32 1015 29.97 844 24.92 11 51.8 28 -6.9 19.6 0 0
20:33 1015 29.97 844 24.92 11.2 52.2 28 -6.5 20.4 0 0
20:34 1015 29.97 844 24.92 11.4 52.4 29 -6.2 20.8 0 0
20:35 1015 29.97 844 24.92 11.3 52.3 28 -6.6 20.1 0 0
20:36 1015 29.97 844 24.92 11.4 52.5 27 -6.8 19.8 0 0
20:37 1015 29.97 844 24.92 11.6 52.8 27 -6.6 20.1 0 0
20:38 1015 29.97 844 24.92 11.7 53.1 27 -6.6 20.1 0 0
20:39 1015 29.97 844 24.92 11.8 53.2 27 -6.6 20.2 0 0
20:40 1015 29.97 844 24.92 11.8 53.3 27 -6.5 20.3 0 0
20:41 1015 29.97 844 24.92 11.9 53.4 26 -6.8 19.8 0 0
20:42 1015 29.97 844 24.92 12.1 53.8 26 -6.9 19.5 0 0
20:43 1015 29.97 844 24.92 12.5 54.5 26 -6.5 20.2 0 0
20:44 1015 29.97 844 24.92 12.7 54.8 26 -6.3 20.7 0 0
20:45 1015 29.97 844 24.92 12.7 54.8 26 -6.2 20.8 0 0
20:46 1015 29.97 844 24.92 12.5 54.6 27 -6.1 21.1 0 0
20:47 1015 29.97 844 24.92 12.2 54 28 -5.8 21.5 0 0
20:48 1015 29.97 844 24.92 11.9 53.4 28 -5.8 21.6 0 0
20:49 1015 29.97 844 24.92 11.8 53.2 29 -5.8 21.6 0 0
20:50 1015 29.97 844 24.92 11.7 53 29 -5.8 21.6 0 0
20:51 1015 29.97 844 24.92 11.7 53 29 -5.8 21.6 0 0
20:52 1015 29.97 844 24.92 11.6 52.8 29 -5.8 21.5 0 0
20:53 1015 29.97 844 24.92 11.6 52.9 29 -5.9 21.5 0 0
20:54 1015 29.97 844 24.92 11.7 53 29 -5.8 21.6 0 0
20:55 1015 29.97 844 24.92 11.6 53 29 -5.7 21.7 0 0
20:56 1015 29.97 844 24.92 11.5 52.7 30 -5.6 21.9 0 0
20:57 1015 29.97 844 24.92 11.2 52.2 30 -5.8 21.5 0 0
20:58 1015 29.97 844 24.92 11.1 52 30 -5.9 21.5 0 0
20:59 1015 29.97 844 24.92 11 51.8 30 -5.9 21.5 0 0
21:00 1015 29.97 844 24.92 10.9 51.7 30 -5.9 21.3 0 0
21:01 1015 29.97 844 24.92 10.9 51.7 30 -5.8 21.6 0 0
21:02 1015 29.97 844 24.92 10.8 51.4 31 -5.7 21.7 0 0
21:03 1015 29.97 844 24.92 10.6 51.1 31 -5.8 21.6 0 0
21:04 1015 29.97 844 24.92 10.5 50.9 31 -5.8 21.6 0 0
21:05 1015 29.97 844 24.92 10.4 50.6 32 -5.7 21.8 0 0
21:06 1015 29.97 844 24.92 10.2 50.4 32 -5.6 21.9 0 0
21:07 1015 29.97 844 24.92 10.1 50.1 33 -5.5 22.1 0 0
21:08 1015 29.97 844 24.92 10 49.9 33 -5.4 22.2 0 0
21:09 1015 29.97 844 24.92 9.9 49.8 33 -5.6 21.9 0 0
21:10 1015 29.97 844 24.92 10.1 50.1 33 -5.5 22.1 0 0
21:11 1015 29.97 844 24.92 10.2 50.3 32 -5.7 21.8 0 0
21:12 1015 29.97 845 24.95 10.3 50.6 32 -5.5 22.1 0 0
21:13 1015 29.97 845 24.95 10.4 50.8 32 -5.4 22.3 0 0
21:14 1015 29.97 845 24.95 10.5 50.9 32 -5.3 22.5 0 0
21:15 1015 29.97 845 24.95 10.6 51.1 32 -5.2 22.6 0 0
21:16 1015 29.97 845 24.95 10.7 51.2 33 -5.1 22.9 0 0
21:17 1015 29.97 845 24.95 10.6 51.1 33 -5 23 0 0
21:18 1015 29.97 845 24.95 10.6 51.1 33 -5 23.1 0 0
21:19 1015 29.97 845 24.95 10.5 51 33 -5 23 0 0
21:20 1015 29.97 845 24.95 10.5 50.9 34 -4.8 23.3 0 0
21:21 1016 30 845 24.95 10.4 50.7 34 -4.8 23.4 0 0
21:22 1016 30 845 24.95 10.3 50.5 34 -4.8 23.3 0 0
21:23 1016 30 845 24.95 10.2 50.4 35 -4.6 23.8 0 0
21:24 1015 29.97 845 24.95 10.2 50.3 36 -4.3 24.3 0 0
21:25 1015 29.97 845 24.95 10.1 50.1 36 -4.4 24.1 0 0
21:26 1015 29.97 845 24.95 10 50 37 -4.1 24.6 0 0
21:27 1015 29.97 845 24.95 9.9 49.8 37 -4.1 24.7 0 0
21:28 1015 29.97 845 24.95 9.7 49.5 38 -3.8 25.2 0 0
21:29 1015 29.97 845 24.95 9.5 49 39 -3.7 25.4 0 0
21:30 1015 29.97 845 24.95 9.2 48.6 40 -3.6 25.5 0 0
21:31 1015 29.97 845 24.95 9 48.2 41 -3.6 25.5 0 0
21:32 1015 29.97 845 24.95 8.8 47.9 41 -3.7 25.3 0 0
21:33 1015 29.97 845 24.95 8.8 47.8 41 -3.6 25.5 0 0
21:34 1016 30 845 24.95 8.7 47.7 42 -3.5 25.6 0 0
21:35 1016 30 845 24.95 8.7 47.6 42 -3.5 25.7 0 0
21:36 1016 30 845 24.95 8.6 47.5 42 -3.5 25.7 0 0
21:37 1016 30 845 24.95 8.5 47.4 43 -3.4 25.8 0 0
21:38 1016 30 845 24.95 8.4 47.2 43 -3.4 25.9 0 0
21:39 1016 30 845 24.95 8.4 47.1 43 -3.3 26 0 0
21:40 1016 30 845 24.95 8.2 46.8 43 -3.5 25.7 0 0
21:41 1016 30 845 24.95 8.2 46.8 43 -3.6 25.4 0 0
21:42 1016 30 845 24.95 8.3 46.9 42 -3.8 25.1 0 0
21:43 1016 30 845 24.95 8.4 47 42 -3.9 25 0 0
21:44 1016 30 845 24.95 8.5 47.2 41 -4 24.8 0 0
21:45 1016 30 845 24.95 8.6 47.5 40 -4.1 24.6 0 0
21:46 1016 30 845 24.95 8.8 47.8 40 -4.1 24.6 0 0
21:47 1016 30 845 24.95 8.8 47.8 40 -4.2 24.5 0 0
21:48 1016 30 845 24.95 8.8 47.9 40 -4.2 24.5 0 0
21:49 1016 30 845 24.95 8.8 47.8 39 -4.2 24.4 0 0
21:50 1016 30 845 24.95 8.8 47.8 39 -4.3 24.2 0 0
21:51 1016 30 845 24.95 8.8 47.8 39 -4.5 24 0 0
21:52 1016 30 845 24.95 8.8 47.8 39 -4.6 23.8 0 0
21:53 1016 30 845 24.95 8.9 47.9 39 -4.4 24 0 0
21:54 1016 30 845 24.95 8.8 47.9 39 -4.5 23.9 0 0
21:55 1016 30 845 24.95 8.8 47.8 39 -4.4 24.1 0 0
21:56 1016 30 845 24.95 8.8 47.8 38 -4.6 23.7 0 0
21:57 1016 30 845 24.95 8.8 47.8 38 -4.6 23.6 0 0
21:58 1016 30 845 24.95 8.9 48 38 -4.7 23.5 0 0
21:59 1016 30 845 24.95 9 48.1 38 -4.7 23.6 0 0
22:00 1016 30 845 24.95 9 48.2 38 -4.6 23.7 0 0
22:01 1016 30 845 24.95 9 48.2 38 -4.7 23.6 0 0
22:02 1016 30 845 24.95 9.1 48.3 38 -4.5 23.8 0 0
22:03 1016 30 845 24.95 9.1 48.3 38 -4.5 24 0 0
22:04 1016 30 845 24.95 9 48.1 39 -4.4 24.1 0 0
22:05 1016 30 845 24.95 8.8 47.9 39 -4.3 24.3 0 0
22:06 1016 30 845 24.95 8.7 47.6 39 -4.4 24.1 0 0
22:07 1016 30 845 24.95 8.7 47.6 39 -4.3 24.2 0 0
22:08 1016 30 845 24.95 8.6 47.5 40 -4.3 24.3 0 0
22:09 1016 30 845 24.95 8.6 47.4 40 -4.3 24.3 0 0
22:10 1016 30 845 24.95 8.5 47.4 40 -4.4 24.1 0 0
22:11 1016 30 845 24.95 8.6 47.4 39 -4.7 23.6 0 0
22:12 1016 30 845 24.95 8.7 47.7 39 -4.5 23.9 0 0
22:13 1016 30 845 24.95 8.7 47.7 39 -4.5 23.9 0 0
22:14 1016 30 845 24.95 8.8 47.8 38 -4.6 23.7 0 0
22:15 1016 30 845 24.95 8.9 48.1 37 -4.9 23.2 0 0
22:16 1016 30 845 24.95 9.1 48.3 37 -4.9 23.2 0 0
22:17 1016 30 845 24.95 9.1 48.4 37 -4.7 23.6 0 0
22:18 1016 30 846 24.98 9.1 48.4 37 -4.6 23.6 0 0
22:19 1016 30 846 24.98 9 48.2 37 -4.7 23.5 0 0
22:20 1016 30 846 24.98 9 48.2 38 -4.5 23.9 0 0
22:21 1016 30 846 24.98 8.9 48.1 38 -4.5 23.9 0 0
22:22 1016 30 846 24.98 8.9 48 38 -4.6 23.8 0 0
22:23 1016 30 846 24.98 8.9 48 38 -4.8 23.3 0 0
22:24 1016 30 846 24.98 9 48.2 37 -4.7 23.5 0 0
22:25 1016 30 846 24.98 9.2 48.5 37 -4.7 23.6 0 0
22:26 1016 30 846 24.98 9.2 48.5 37 -4.8 23.4 0 0
22:27 1016 30 846 24.98 9.1 48.5 37 -4.8 23.4 0 0
22:28 1016 30 846 24.98 9.2 48.5 37 -4.7 23.6 0 0
22:29 1016 30 846 24.98 9.2 48.6 38 -4.5 23.9 0 0
22:30 1017 30.03 846 24.98 9.2 48.5 37 -4.7 23.6 0 0
22:31 1016 30 846 24.98 9.2 48.5 37 -4.7 23.6 0 0
22:32 1017 30.03 846 24.98 9.1 48.4 38 -4.6 23.7 0 0
22:33 1017 30.03 846 24.98 9 48.1 38 -4.6 23.8 0 0
22:34 1017 30.03 846 24.98 8.8 47.9 38 -4.6 23.7 0 0
22:35 1017 30.03 846 24.98 8.8 47.8 39 -4.6 23.8 0 0
22:36 1017 30.03 846 24.98 8.7 47.7 38 -4.7 23.6 0 0
22:37 1017 30.03 846 24.98 8.8 47.8 38 -4.9 23.2 0 0
22:38 1017 30.03 846 24.98 9 48.1 37 -5 23 0 0
22:39 1017 30.03 846 24.98 9.1 48.3 36 -5.1 22.8 0 0
22:40 1017 30.03 846 24.98 9.2 48.5 36 -5.1 22.9 0 0
22:41 1017 30.03 846 24.98 9.2 48.6 36 -5 22.9 0 0
22:42 1017 30.03 846 24.98 9.2 48.6 36 -5 23.1 0 0
22:43 1017 30.03 846 24.98 9.1 48.4 37 -4.9 23.2 0 0
22:44 1017 30.03 846 24.98 9 48.2 37 -4.8 23.4 0 0
22:45 1017 30.03 846 24.98 8.8 47.9 37 -4.9 23.2 0 0
22:46 1017 30.03 846 24.98 8.7 47.6 38 -5 23.1 0 0
22:47 1017 30.03 846 24.98 8.6 47.5 38 -4.8 23.3 0 0
22:48 1017 30.03 846 24.98 8.6 47.4 38 -4.8 23.3 0 0
22:49 1017 30.03 846 24.98 8.5 47.3 39 -4.6 23.6 0 0
22:50 1017 30.03 846 24.98 8.5 47.2 39 -4.7 23.5 0 0
22:51 1017 30.03 846 24.98 8.5 47.2 39 -4.6 23.7 0 0
22:52 1017 30.03 846 24.98 8.3 47 39 -4.7 23.6 0 0
22:53 1017 30.03 846 24.98 8.3 46.9 40 -4.7 23.6 0 0
22:54 1017 30.03 846 24.98 8.3 47 39 -4.7 23.6 0 0
22:55 1017 30.03 846 24.98 8.3 47 40 -4.6 23.7 0 0
22:56 1017 30.03 846 24.98 8.3 47 40 -4.5 23.9 0 0
22:57 1017 30.03 846 24.98 8.3 46.9 40 -4.5 23.9 0 0
22:58 1017 30.03 846 24.98 8.1 46.7 40 -4.5 23.8 0 0
22:59 1017 30.03 846 24.98 8.1 46.6 40 -4.6 23.8 0 0
23:00 1017 30.03 846 24.98 8.1 46.5 40 -4.7 23.5 0 0
23:01 1017 30.03 846 24.98 8.1 46.5 40 -4.8 23.3 0 0
23:02 1017 30.03 846 24.98 8.2 46.7 39 -4.9 23.1 0 0
23:03 1017 30.03 846 24.98 8.3 47 39 -4.9 23.2 0 0
23:04 1017 30.03 846 24.98 8.4 47.1 39 -4.8 23.4 0 0
23:05 1017 30.03 846 24.98 8.4 47.1 39 -4.7 23.5 0 0
23:06 1017 30.03 846 24.98 8.4 47.1 39 -4.7 23.5 0 0
23:07 1017 30.03 846 24.98 8.4 47.1 40 -4.4 24 0 0
23:08 1017 30.03 846 24.98 8.2 46.8 41 -4.3 24.2 0 0
23:09 1017 30.03 846 24.98 8 46.3 41 -4.3 24.2 0 0
23:10 1017 30.03 846 24.98 7.7 45.9 42 -4.3 24.3 0 0
23:11 1017 30.03 846 24.98 7.5 45.5 43 -4.3 24.3 0 0
23:12 1017 30.03 846 24.98 7.3 45.1 44 -4.2 24.5 0 0
23:13 1017 30.03 846 24.98 7.1 44.9 45 -4 24.8 0 0
23:14 1017 30.03 846 24.98 7.1 44.7 45 -4.1 24.5 0 0
23:15 1017 30.03 846 24.98 7.1 44.8 45 -4.1 24.5 0 0
23:16 1017 30.03 846 24.98 7.1 44.8 45 -4 24.7 0 0
23:17 1017 30.03 846 24.98 7 44.6 46 -3.9 24.9 0 0
23:18 1017 30.03 846 24.98 6.9 44.5 46 -4 24.8 0 0
23:19 1017 30.03 846 24.98 6.9 44.3 46 -3.8 25.1 0 0
23:20 1017 30.03 846 24.98 6.7 44 46 -4.1 24.7 0 0
23:21 1017 30.03 846 24.98 6.6 43.9 47 -4 24.8 0 0
23:22 1017 30.03 846 24.98 6.6 43.9 47 -3.9 25 0 0
23:23 1017 30.03 846 24.98 6.6 43.8 47 -4 24.8 0 0
23:24 1017 30.03 846 24.98 6.4 43.5 47 -4.1 24.7 0 0
23:25 1017 30.03 846 24.98 6.3 43.3 48 -4 24.7 0 0
23:26 1017 30.03 846 24.98 6.2 43.1 48 -4 24.8 0 0
23:27 1017 30.03 846 24.98 6.1 42.9 48 -4 24.8 0 0
23:28 1017 30.03 846 24.98 6.1 42.9 48 -4.1 24.7 0 0
23:29 1017 30.03 846 24.98 6.2 43.1 48 -4 24.9 0 0
23:30 1017 30.03 846 24.98 6.1 43 48 -3.9 25 0 0
23:31 1017 30.03 846 24.98 6.1 43 48 -4.1 24.7 0 0
23:32 1017 30.03 846 24.98 6.2 43.1 47 -4.2 24.5 0 0
23:33 1017 30.03 846 24.98 6.2 43.2 48 -4.1 24.7 0 0
23:34 1017 30.03 846 24.98 6.2 43.2 47 -4.1 24.5 0 0
23:35 1017 30.03 846 24.98 6.2 43.1 48 -4.1 24.5 0 0
23:36 1017 30.03 846 24.98 6.2 43.1 47 -4.2 24.4 0 0
23:37 1016 30 846 24.98 6.2 43.1 48 -4 24.7 0 0
23:38 1016 30 846 24.98 6 42.8 49 -4 24.7 0 0
23:39 1016 30 846 24.98 5.8 42.4 49 -4.1 24.6 0 0
23:40 1016 30 846 24.98 5.8 42.4 49 -4.2 24.5 0 0
23:41 1016 30 846 24.98 5.8 42.5 49 -4.2 24.5 0 0
23:42 1016 30 846 24.98 5.9 42.5 48 -4.2 24.5 0 0
23:43 1016 30 846 24.98 5.9 42.6 48 -4.2 24.4 0 0
23:44 1016 30 846 24.98 6 42.7 48 -4.2 24.5 0 0
23:45 1016 30 846 24.98 6 42.8 48 -4.2 24.4 0 0
23:46 1016 30 846 24.98 6.1 43 48 -4.2 24.4 0 0
23:47 1016 30 846 24.98 6 42.9 48 -4.2 24.5 0 0
23:48 1016 30 846 24.98 5.9 42.6 49 -4.1 24.5 0 0
23:49 1016 30 846 24.98 5.8 42.4 49 -4.2 24.5 0 0
23:50 1016 30 846 24.98 5.7 42.3 49 -4.2 24.4 0 0
23:51 1016 30 846 24.98 5.7 42.3 49 -4.1 24.6 0 0
23:52 1016 30 846 24.98 5.7 42.3 49 -4 24.8 0 0
23:53 1016 30 846 24.98 5.7 42.3 49 -4.1 24.7 0 0
23:54 1016 30 846 24.98 5.7 42.3 50 -3.8 25.2 0 0
23:55 1016 30 846 24.98 5.5 41.9 51 -4 24.8 0 0
23:56 1016 30 846 24.98 5 40.9 52 -4 24.8 0 0
23:57 1016 30 846 24.98 4.5 40.2 53 -4.2 24.4 0 0
23:58 1016 30 846 24.98 4.5 40.2 53 -4.3 24.2 0 0
23:59 1016 30 846 24.98 4.6 40.3 52 -4.3 24.2 0 0
24:00 1016 30 846 24.98 4.8 40.6 51 -4.5 23.8 0 0